<?xml version="1.0" encoding="UTF-8" standalone="no" ?>
<gpx xmlns="http://www.topografix.com/GPX/1/1" xmlns:xsi="http://www.w3.org/2001/XMLSchema-instance" xsi:schemaLocation="http://www.topografix.com/GPX/1/1 http://www.topografix.com/GPX/1/1/gpx.xsd" version="1.1" creator="VisuGPX - https://www.visugpx.com">
  <metadata>
    <name>UT53</name>
  </metadata>
  <trk>
    <name><![CDATA[UT53 Étape 4]]></name>
    <extensions>
      <line xmlns="http://www.topografix.com/GPX/gpx_style/0/2">
        <color>00FFFF</color>
        <width>4</width>
      </line>
    </extensions>
    <trkseg>
      <trkpt lat="48.92089" lon="7.48193">
        <ele>336.90728944125</ele>
        <time>2021-03-30T12:12:52.000Z</time>
      </trkpt>
      <trkpt lat="48.92089" lon="7.48193">
        <ele>336.90728944125</ele>
        <time>2021-03-30T12:12:52.000Z</time>
      </trkpt>
      <trkpt lat="48.92085" lon="7.48194">
        <ele>336.31138742588</ele>
        <time>2021-03-30T12:12:52.001Z</time>
      </trkpt>
      <trkpt lat="48.92079" lon="7.48162">
        <ele>335.41682511611</ele>
        <time>2021-03-30T12:12:52.010Z</time>
      </trkpt>
      <trkpt lat="48.92071" lon="7.481">
        <ele>334.49446532196</ele>
        <time>2021-03-30T12:12:52.032Z</time>
      </trkpt>
      <trkpt lat="48.92064" lon="7.48045">
        <ele>333.17735985636</ele>
        <time>2021-03-30T12:12:52.067Z</time>
      </trkpt>
      <trkpt lat="48.9206" lon="7.48014">
        <ele>332.18328989452</ele>
        <time>2021-03-30T12:12:52.109Z</time>
      </trkpt>
      <trkpt lat="48.92059" lon="7.47992">
        <ele>331.36458176547</ele>
        <time>2021-03-30T12:12:52.156Z</time>
      </trkpt>
      <trkpt lat="48.92057" lon="7.47978">
        <ele>330.58954646631</ele>
        <time>2021-03-30T12:12:52.206Z</time>
      </trkpt>
      <trkpt lat="48.92045" lon="7.4798">
        <ele>329.7869029013</ele>
        <time>2021-03-30T12:12:52.260Z</time>
      </trkpt>
      <trkpt lat="48.92036" lon="7.47981">
        <ele>329.03235976916</ele>
        <time>2021-03-30T12:12:52.317Z</time>
      </trkpt>
      <trkpt lat="48.92032" lon="7.4798">
        <ele>328.39925752486</ele>
        <time>2021-03-30T12:12:52.375Z</time>
      </trkpt>
      <trkpt lat="48.9203" lon="7.47975">
        <ele>327.83599007151</ele>
        <time>2021-03-30T12:12:52.434Z</time>
      </trkpt>
      <trkpt lat="48.9203" lon="7.47965">
        <ele>327.32788737367</ele>
        <time>2021-03-30T12:12:52.496Z</time>
      </trkpt>
      <trkpt lat="48.9203" lon="7.4794">
        <ele>326.8425554667</ele>
        <time>2021-03-30T12:12:52.563Z</time>
      </trkpt>
      <trkpt lat="48.9203" lon="7.47925">
        <ele>326.35967183505</ele>
        <time>2021-03-30T12:12:52.633Z</time>
      </trkpt>
      <trkpt lat="48.92029" lon="7.4792">
        <ele>325.854362048</ele>
        <time>2021-03-30T12:12:52.705Z</time>
      </trkpt>
      <trkpt lat="48.92023" lon="7.47914">
        <ele>325.27167740622</ele>
        <time>2021-03-30T12:12:52.779Z</time>
      </trkpt>
      <trkpt lat="48.92011" lon="7.47909">
        <ele>324.57388662184</ele>
        <time>2021-03-30T12:12:52.857Z</time>
      </trkpt>
      <trkpt lat="48.91988" lon="7.47898">
        <ele>323.53250854902</ele>
        <time>2021-03-30T12:12:52.943Z</time>
      </trkpt>
      <trkpt lat="48.9198" lon="7.47895">
        <ele>322.60136940651</ele>
        <time>2021-03-30T12:12:53.032Z</time>
      </trkpt>
      <trkpt lat="48.9198" lon="7.47888">
        <ele>321.73912801422</ele>
        <time>2021-03-30T12:12:53.122Z</time>
      </trkpt>
      <trkpt lat="48.91974" lon="7.47887">
        <ele>320.81982950327</ele>
        <time>2021-03-30T12:12:53.214Z</time>
      </trkpt>
      <trkpt lat="48.91967" lon="7.47884">
        <ele>319.86891330074</ele>
        <time>2021-03-30T12:12:53.309Z</time>
      </trkpt>
      <trkpt lat="48.91965" lon="7.47878">
        <ele>318.96332765046</ele>
        <time>2021-03-30T12:12:53.405Z</time>
      </trkpt>
      <trkpt lat="48.91965" lon="7.4787">
        <ele>318.08278006471</ele>
        <time>2021-03-30T12:12:53.503Z</time>
      </trkpt>
      <trkpt lat="48.91965" lon="7.47863">
        <ele>317.25506014216</ele>
        <time>2021-03-30T12:12:53.603Z</time>
      </trkpt>
      <trkpt lat="48.91964" lon="7.47859">
        <ele>316.41872517238</ele>
        <time>2021-03-30T12:12:53.704Z</time>
      </trkpt>
      <trkpt lat="48.91962" lon="7.47854">
        <ele>315.57601858885</ele>
        <time>2021-03-30T12:12:53.806Z</time>
      </trkpt>
      <trkpt lat="48.91957" lon="7.47858">
        <ele>314.60922327335</ele>
        <time>2021-03-30T12:12:53.910Z</time>
      </trkpt>
      <trkpt lat="48.91952" lon="7.47858">
        <ele>313.60900905042</ele>
        <time>2021-03-30T12:12:54.015Z</time>
      </trkpt>
      <trkpt lat="48.91942" lon="7.47856">
        <ele>312.47944510634</ele>
        <time>2021-03-30T12:12:54.124Z</time>
      </trkpt>
      <trkpt lat="48.91935" lon="7.47852">
        <ele>311.37682779127</ele>
        <time>2021-03-30T12:12:54.235Z</time>
      </trkpt>
      <trkpt lat="48.9193" lon="7.47844">
        <ele>310.31269068697</ele>
        <time>2021-03-30T12:12:54.349Z</time>
      </trkpt>
      <trkpt lat="48.91921" lon="7.47821">
        <ele>309.18148787811</ele>
        <time>2021-03-30T12:12:54.469Z</time>
      </trkpt>
      <trkpt lat="48.91922" lon="7.47778">
        <ele>308.34339667454</ele>
        <time>2021-03-30T12:12:54.598Z</time>
      </trkpt>
      <trkpt lat="48.9193" lon="7.4772">
        <ele>307.4294920347</ele>
        <time>2021-03-30T12:12:54.740Z</time>
      </trkpt>
      <trkpt lat="48.91958" lon="7.47626">
        <ele>305.90707314539</ele>
        <time>2021-03-30T12:12:54.905Z</time>
      </trkpt>
      <trkpt lat="48.91991" lon="7.47557">
        <ele>305.08476090348</ele>
        <time>2021-03-30T12:12:55.088Z</time>
      </trkpt>
      <trkpt lat="48.92016" lon="7.47529">
        <ele>304.34551830295</ele>
        <time>2021-03-30T12:12:55.282Z</time>
      </trkpt>
      <trkpt lat="48.92041" lon="7.47517">
        <ele>303.69997226947</ele>
        <time>2021-03-30T12:12:55.485Z</time>
      </trkpt>
      <trkpt lat="48.92081" lon="7.47516">
        <ele>303.0082744005</ele>
        <time>2021-03-30T12:12:55.701Z</time>
      </trkpt>
      <trkpt lat="48.92091" lon="7.47512">
        <ele>302.19492147757</ele>
        <time>2021-03-30T12:12:55.921Z</time>
      </trkpt>
      <trkpt lat="48.92098" lon="7.47502">
        <ele>301.38291248836</ele>
        <time>2021-03-30T12:12:56.144Z</time>
      </trkpt>
      <trkpt lat="48.92099" lon="7.47486">
        <ele>300.63737777373</ele>
        <time>2021-03-30T12:12:56.370Z</time>
      </trkpt>
      <trkpt lat="48.92106" lon="7.47423">
        <ele>299.45191042203</ele>
        <time>2021-03-30T12:12:56.610Z</time>
      </trkpt>
      <trkpt lat="48.92109" lon="7.47374">
        <ele>298.24478062837</ele>
        <time>2021-03-30T12:12:56.861Z</time>
      </trkpt>
      <trkpt lat="48.92113" lon="7.47351">
        <ele>297.47778295127</ele>
        <time>2021-03-30T12:12:57.117Z</time>
      </trkpt>
      <trkpt lat="48.92124" lon="7.47331">
        <ele>296.96105561058</ele>
        <time>2021-03-30T12:12:57.379Z</time>
      </trkpt>
      <trkpt lat="48.92132" lon="7.47318">
        <ele>296.50873042531</ele>
        <time>2021-03-30T12:12:57.645Z</time>
      </trkpt>
      <trkpt lat="48.92134" lon="7.47298">
        <ele>296.20198030061</ele>
        <time>2021-03-30T12:12:57.915Z</time>
      </trkpt>
      <trkpt lat="48.92139" lon="7.47246">
        <ele>295.93381100317</ele>
        <time>2021-03-30T12:12:58.197Z</time>
      </trkpt>
      <trkpt lat="48.92149" lon="7.47173">
        <ele>295.76289729341</ele>
        <time>2021-03-30T12:12:58.495Z</time>
      </trkpt>
      <trkpt lat="48.92163" lon="7.47115">
        <ele>296.19683251994</ele>
        <time>2021-03-30T12:12:58.807Z</time>
      </trkpt>
      <trkpt lat="48.92175" lon="7.47044">
        <ele>296.67894745858</ele>
        <time>2021-03-30T12:12:59.135Z</time>
      </trkpt>
      <trkpt lat="48.92181" lon="7.46999">
        <ele>297.29721971264</ele>
        <time>2021-03-30T12:12:59.473Z</time>
      </trkpt>
      <trkpt lat="48.92179" lon="7.46971">
        <ele>297.87585932604</ele>
        <time>2021-03-30T12:12:59.817Z</time>
      </trkpt>
      <trkpt lat="48.92169" lon="7.46946">
        <ele>298.5945387974</ele>
        <time>2021-03-30T12:13:00.168Z</time>
      </trkpt>
      <trkpt lat="48.92159" lon="7.4693">
        <ele>299.34280374339</ele>
        <time>2021-03-30T12:13:00.524Z</time>
      </trkpt>
      <trkpt lat="48.92154" lon="7.46927">
        <ele>300.07709097901</ele>
        <time>2021-03-30T12:13:00.881Z</time>
      </trkpt>
      <trkpt lat="48.92147" lon="7.46929">
        <ele>300.83197535512</ele>
        <time>2021-03-30T12:13:01.241Z</time>
      </trkpt>
      <trkpt lat="48.92139" lon="7.4693">
        <ele>301.63275176828</ele>
        <time>2021-03-30T12:13:01.603Z</time>
      </trkpt>
      <trkpt lat="48.92132" lon="7.4693">
        <ele>302.4501988247</ele>
        <time>2021-03-30T12:13:01.968Z</time>
      </trkpt>
      <trkpt lat="48.92129" lon="7.46927">
        <ele>303.30889061662</ele>
        <time>2021-03-30T12:13:02.334Z</time>
      </trkpt>
      <trkpt lat="48.92122" lon="7.46912">
        <ele>304.26464486929</ele>
        <time>2021-03-30T12:13:02.704Z</time>
      </trkpt>
      <trkpt lat="48.92117" lon="7.46909">
        <ele>305.17143534631</ele>
        <time>2021-03-30T12:13:03.076Z</time>
      </trkpt>
      <trkpt lat="48.9211" lon="7.46912">
        <ele>306.06670012558</ele>
        <time>2021-03-30T12:13:03.450Z</time>
      </trkpt>
      <trkpt lat="48.92106" lon="7.46919">
        <ele>306.95215899841</ele>
        <time>2021-03-30T12:13:03.826Z</time>
      </trkpt>
      <trkpt lat="48.92102" lon="7.46924">
        <ele>307.86481332886</ele>
        <time>2021-03-30T12:13:04.204Z</time>
      </trkpt>
      <trkpt lat="48.92095" lon="7.46928">
        <ele>308.81018084665</ele>
        <time>2021-03-30T12:13:04.585Z</time>
      </trkpt>
      <trkpt lat="48.92085" lon="7.46922">
        <ele>309.93123960078</ele>
        <time>2021-03-30T12:13:04.969Z</time>
      </trkpt>
      <trkpt lat="48.92074" lon="7.4692">
        <ele>311.06329999242</ele>
        <time>2021-03-30T12:13:05.357Z</time>
      </trkpt>
      <trkpt lat="48.92064" lon="7.46924">
        <ele>312.23435330621</ele>
        <time>2021-03-30T12:13:05.748Z</time>
      </trkpt>
      <trkpt lat="48.92055" lon="7.46931">
        <ele>313.43275662395</ele>
        <time>2021-03-30T12:13:06.143Z</time>
      </trkpt>
      <trkpt lat="48.92044" lon="7.46938">
        <ele>314.7161508576</ele>
        <time>2021-03-30T12:13:06.542Z</time>
      </trkpt>
      <trkpt lat="48.92037" lon="7.4694">
        <ele>315.93753506909</ele>
        <time>2021-03-30T12:13:06.943Z</time>
      </trkpt>
      <trkpt lat="48.92031" lon="7.46935">
        <ele>317.13435191451</ele>
        <time>2021-03-30T12:13:07.346Z</time>
      </trkpt>
      <trkpt lat="48.92025" lon="7.46927">
        <ele>318.31446745324</ele>
        <time>2021-03-30T12:13:07.752Z</time>
      </trkpt>
      <trkpt lat="48.92023" lon="7.46916">
        <ele>319.40233449401</ele>
        <time>2021-03-30T12:13:08.160Z</time>
      </trkpt>
      <trkpt lat="48.92022" lon="7.46902">
        <ele>320.44086713611</ele>
        <time>2021-03-30T12:13:08.572Z</time>
      </trkpt>
      <trkpt lat="48.9202" lon="7.46893">
        <ele>321.4598841053</ele>
        <time>2021-03-30T12:13:08.986Z</time>
      </trkpt>
      <trkpt lat="48.92018" lon="7.46886">
        <ele>322.43041741146</ele>
        <time>2021-03-30T12:13:09.401Z</time>
      </trkpt>
      <trkpt lat="48.92007" lon="7.46875">
        <ele>323.43440587715</ele>
        <time>2021-03-30T12:13:09.821Z</time>
      </trkpt>
      <trkpt lat="48.91999" lon="7.46872">
        <ele>324.3601217483</ele>
        <time>2021-03-30T12:13:10.243Z</time>
      </trkpt>
      <trkpt lat="48.91986" lon="7.4687">
        <ele>325.29237940272</ele>
        <time>2021-03-30T12:13:10.670Z</time>
      </trkpt>
      <trkpt lat="48.91972" lon="7.46871">
        <ele>326.14383591639</ele>
        <time>2021-03-30T12:13:11.101Z</time>
      </trkpt>
      <trkpt lat="48.91951" lon="7.46869">
        <ele>326.96209118401</ele>
        <time>2021-03-30T12:13:11.540Z</time>
      </trkpt>
      <trkpt lat="48.91945" lon="7.46865">
        <ele>327.61446544569</ele>
        <time>2021-03-30T12:13:11.981Z</time>
      </trkpt>
      <trkpt lat="48.91939" lon="7.46856">
        <ele>328.17762983339</ele>
        <time>2021-03-30T12:13:12.425Z</time>
      </trkpt>
      <trkpt lat="48.91936" lon="7.46849">
        <ele>328.69780194083</ele>
        <time>2021-03-30T12:13:12.870Z</time>
      </trkpt>
      <trkpt lat="48.91932" lon="7.46835">
        <ele>329.12230058216</ele>
        <time>2021-03-30T12:13:13.319Z</time>
      </trkpt>
      <trkpt lat="48.91921" lon="7.46835">
        <ele>329.6103340141</ele>
        <time>2021-03-30T12:13:13.771Z</time>
      </trkpt>
      <trkpt lat="48.91911" lon="7.46835">
        <ele>330.05119802306</ele>
        <time>2021-03-30T12:13:14.227Z</time>
      </trkpt>
      <trkpt lat="48.91905" lon="7.46831">
        <ele>330.43563649904</ele>
        <time>2021-03-30T12:13:14.685Z</time>
      </trkpt>
      <trkpt lat="48.91895" lon="7.46831">
        <ele>330.77276992448</ele>
        <time>2021-03-30T12:13:15.146Z</time>
      </trkpt>
      <trkpt lat="48.91888" lon="7.46828">
        <ele>331.05654643186</ele>
        <time>2021-03-30T12:13:15.610Z</time>
      </trkpt>
      <trkpt lat="48.91875" lon="7.4681">
        <ele>331.25486136243</ele>
        <time>2021-03-30T12:13:16.080Z</time>
      </trkpt>
      <trkpt lat="48.91864" lon="7.46786">
        <ele>331.44429903957</ele>
        <time>2021-03-30T12:13:16.556Z</time>
      </trkpt>
      <trkpt lat="48.9183" lon="7.46678">
        <ele>331.74984704883</ele>
        <time>2021-03-30T12:13:17.058Z</time>
      </trkpt>
      <trkpt lat="48.91787" lon="7.46561">
        <ele>332.05943300778</ele>
        <time>2021-03-30T12:13:17.590Z</time>
      </trkpt>
      <trkpt lat="48.91723" lon="7.46372">
        <ele>332.88132537196</ele>
        <time>2021-03-30T12:13:18.169Z</time>
      </trkpt>
      <trkpt lat="48.91608" lon="7.46336">
        <ele>333.08181367459</ele>
        <time>2021-03-30T12:13:18.786Z</time>
      </trkpt>
      <trkpt lat="48.91696" lon="7.46082">
        <ele>332.6900802214</ele>
        <time>2021-03-30T12:13:19.466Z</time>
      </trkpt>
      <trkpt lat="48.91724" lon="7.46029">
        <ele>332.31536772835</ele>
        <time>2021-03-30T12:13:20.161Z</time>
      </trkpt>
      <trkpt lat="48.91731" lon="7.46007">
        <ele>331.72648193649</ele>
        <time>2021-03-30T12:13:20.862Z</time>
      </trkpt>
      <trkpt lat="48.91737" lon="7.45981">
        <ele>330.83760962404</ele>
        <time>2021-03-30T12:13:21.569Z</time>
      </trkpt>
      <trkpt lat="48.91752" lon="7.45964">
        <ele>329.97786564855</ele>
        <time>2021-03-30T12:13:22.282Z</time>
      </trkpt>
      <trkpt lat="48.91771" lon="7.45904">
        <ele>328.56339697925</ele>
        <time>2021-03-30T12:13:23.010Z</time>
      </trkpt>
      <trkpt lat="48.91809" lon="7.45829">
        <ele>327.4691697282</ele>
        <time>2021-03-30T12:13:23.758Z</time>
      </trkpt>
      <trkpt lat="48.91825" lon="7.45803">
        <ele>326.43235685482</ele>
        <time>2021-03-30T12:13:24.514Z</time>
      </trkpt>
      <trkpt lat="48.91839" lon="7.45763">
        <ele>325.3246922971</ele>
        <time>2021-03-30T12:13:25.280Z</time>
      </trkpt>
      <trkpt lat="48.91833" lon="7.45735">
        <ele>323.95433626405</ele>
        <time>2021-03-30T12:13:26.053Z</time>
      </trkpt>
      <trkpt lat="48.91831" lon="7.45715">
        <ele>322.53245285615</ele>
        <time>2021-03-30T12:13:26.830Z</time>
      </trkpt>
      <trkpt lat="48.91835" lon="7.45696">
        <ele>321.09156055428</ele>
        <time>2021-03-30T12:13:27.612Z</time>
      </trkpt>
      <trkpt lat="48.91853" lon="7.45634">
        <ele>319.43220358626</ele>
        <time>2021-03-30T12:13:28.409Z</time>
      </trkpt>
      <trkpt lat="48.91865" lon="7.45582">
        <ele>317.95691886432</ele>
        <time>2021-03-30T12:13:29.218Z</time>
      </trkpt>
      <trkpt lat="48.91864" lon="7.45525">
        <ele>316.25322310255</ele>
        <time>2021-03-30T12:13:30.039Z</time>
      </trkpt>
      <trkpt lat="48.91826" lon="7.45358">
        <ele>314.3236592743</ele>
        <time>2021-03-30T12:13:30.899Z</time>
      </trkpt>
      <trkpt lat="48.91826" lon="7.45358">
        <ele>310.9192293608</ele>
        <time>2021-03-30T12:13:31.759Z</time>
      </trkpt>
      <trkpt lat="48.91795" lon="7.45179">
        <ele>308.72370789429</ele>
        <time>2021-03-30T12:13:32.660Z</time>
      </trkpt>
      <trkpt lat="48.91788" lon="7.44996">
        <ele>306.28070788314</ele>
        <time>2021-03-30T12:13:33.601Z</time>
      </trkpt>
      <trkpt lat="48.9179" lon="7.44917">
        <ele>304.43329211484</ele>
        <time>2021-03-30T12:13:34.560Z</time>
      </trkpt>
      <trkpt lat="48.91783" lon="7.4483">
        <ele>302.56004110822</ele>
        <time>2021-03-30T12:13:35.538Z</time>
      </trkpt>
      <trkpt lat="48.91767" lon="7.44743">
        <ele>300.54821341985</ele>
        <time>2021-03-30T12:13:36.536Z</time>
      </trkpt>
      <trkpt lat="48.91753" lon="7.44657">
        <ele>298.26816806234</ele>
        <time>2021-03-30T12:13:37.553Z</time>
      </trkpt>
      <trkpt lat="48.91754" lon="7.44579">
        <ele>296.16150643831</ele>
        <time>2021-03-30T12:13:38.588Z</time>
      </trkpt>
      <trkpt lat="48.91744" lon="7.44472">
        <ele>293.63216933737</ele>
        <time>2021-03-30T12:13:39.646Z</time>
      </trkpt>
      <trkpt lat="48.91735" lon="7.44401">
        <ele>290.76122871084</ele>
        <time>2021-03-30T12:13:40.720Z</time>
      </trkpt>
      <trkpt lat="48.91728" lon="7.4433">
        <ele>287.38951467839</ele>
        <time>2021-03-30T12:13:41.810Z</time>
      </trkpt>
      <trkpt lat="48.91713" lon="7.44235">
        <ele>283.33686442747</ele>
        <time>2021-03-30T12:13:42.921Z</time>
      </trkpt>
      <trkpt lat="48.91693" lon="7.44176">
        <ele>279.49341870159</ele>
        <time>2021-03-30T12:13:44.047Z</time>
      </trkpt>
      <trkpt lat="48.91672" lon="7.44126">
        <ele>275.36982271791</ele>
        <time>2021-03-30T12:13:45.186Z</time>
      </trkpt>
      <trkpt lat="48.91659" lon="7.44089">
        <ele>271.13293404259</ele>
        <time>2021-03-30T12:13:46.334Z</time>
      </trkpt>
      <trkpt lat="48.91639" lon="7.44045">
        <ele>266.84512293151</ele>
        <time>2021-03-30T12:13:47.494Z</time>
      </trkpt>
      <trkpt lat="48.91589" lon="7.43982">
        <ele>262.69088732255</ele>
        <time>2021-03-30T12:13:48.676Z</time>
      </trkpt>
      <trkpt lat="48.9157" lon="7.4396">
        <ele>258.67087185024</ele>
        <time>2021-03-30T12:13:49.866Z</time>
      </trkpt>
      <trkpt lat="48.91501" lon="7.43914">
        <ele>254.11068113418</ele>
        <time>2021-03-30T12:13:51.081Z</time>
      </trkpt>
      <trkpt lat="48.91491" lon="7.43854">
        <ele>250.04899270496</ele>
        <time>2021-03-30T12:13:52.309Z</time>
      </trkpt>
      <trkpt lat="48.91428" lon="7.4377">
        <ele>247.02051873152</ele>
        <time>2021-03-30T12:13:53.565Z</time>
      </trkpt>
      <trkpt lat="48.91439" lon="7.43754">
        <ele>243.20017159367</ele>
        <time>2021-03-30T12:13:54.827Z</time>
      </trkpt>
      <trkpt lat="48.91439" lon="7.4373">
        <ele>239.50519168606</ele>
        <time>2021-03-30T12:13:56.094Z</time>
      </trkpt>
      <trkpt lat="48.91403" lon="7.43707">
        <ele>236.30467224801</ele>
        <time>2021-03-30T12:13:57.374Z</time>
      </trkpt>
      <trkpt lat="48.91348" lon="7.43615">
        <ele>233.03657707525</ele>
        <time>2021-03-30T12:13:58.681Z</time>
      </trkpt>
      <trkpt lat="48.91335" lon="7.43575">
        <ele>229.62810007218</ele>
        <time>2021-03-30T12:13:59.998Z</time>
      </trkpt>
      <trkpt lat="48.91298" lon="7.4353">
        <ele>226.24196929288</ele>
        <time>2021-03-30T12:14:01.331Z</time>
      </trkpt>
      <trkpt lat="48.91107" lon="7.43197">
        <ele>222.73297698809</ele>
        <time>2021-03-30T12:14:02.761Z</time>
      </trkpt>
      <trkpt lat="48.9109" lon="7.43185">
        <ele>220.24135677931</ele>
        <time>2021-03-30T12:14:04.197Z</time>
      </trkpt>
      <trkpt lat="48.91079" lon="7.43163">
        <ele>217.88653599192</ele>
        <time>2021-03-30T12:14:05.639Z</time>
      </trkpt>
      <trkpt lat="48.91073" lon="7.43137">
        <ele>215.76826174753</ele>
        <time>2021-03-30T12:14:07.087Z</time>
      </trkpt>
      <trkpt lat="48.91073" lon="7.43132">
        <ele>213.97292203899</ele>
        <time>2021-03-30T12:14:08.536Z</time>
      </trkpt>
      <trkpt lat="48.91073" lon="7.43123">
        <ele>212.39971002832</ele>
        <time>2021-03-30T12:14:09.987Z</time>
      </trkpt>
      <trkpt lat="48.91074" lon="7.43114">
        <ele>211.06246597824</ele>
        <time>2021-03-30T12:14:11.440Z</time>
      </trkpt>
      <trkpt lat="48.91076" lon="7.43104">
        <ele>209.95963539818</ele>
        <time>2021-03-30T12:14:12.896Z</time>
      </trkpt>
      <trkpt lat="48.91087" lon="7.43066">
        <ele>209.07250549265</ele>
        <time>2021-03-30T12:14:14.361Z</time>
      </trkpt>
      <trkpt lat="48.91097" lon="7.43025">
        <ele>208.49925158679</ele>
        <time>2021-03-30T12:14:15.835Z</time>
      </trkpt>
      <trkpt lat="48.91102" lon="7.43003">
        <ele>208.03198768285</ele>
        <time>2021-03-30T12:14:17.315Z</time>
      </trkpt>
      <trkpt lat="48.91108" lon="7.42979">
        <ele>207.68794508409</ele>
        <time>2021-03-30T12:14:18.800Z</time>
      </trkpt>
      <trkpt lat="48.91124" lon="7.42924">
        <ele>207.42925820331</ele>
        <time>2021-03-30T12:14:20.298Z</time>
      </trkpt>
      <trkpt lat="48.91132" lon="7.42901">
        <ele>207.36665984078</ele>
        <time>2021-03-30T12:14:21.802Z</time>
      </trkpt>
      <trkpt lat="48.91139" lon="7.42879">
        <ele>207.47490481714</ele>
        <time>2021-03-30T12:14:23.311Z</time>
      </trkpt>
      <trkpt lat="48.91144" lon="7.4287">
        <ele>207.68543178975</ele>
        <time>2021-03-30T12:14:24.823Z</time>
      </trkpt>
      <trkpt lat="48.91149" lon="7.42861">
        <ele>207.9799671346</ele>
        <time>2021-03-30T12:14:26.338Z</time>
      </trkpt>
      <trkpt lat="48.91157" lon="7.4285">
        <ele>208.34636425287</ele>
        <time>2021-03-30T12:14:27.856Z</time>
      </trkpt>
      <trkpt lat="48.91158" lon="7.42842">
        <ele>208.75649689516</ele>
        <time>2021-03-30T12:14:29.376Z</time>
      </trkpt>
      <trkpt lat="48.9116" lon="7.42833">
        <ele>209.20732300506</ele>
        <time>2021-03-30T12:14:30.898Z</time>
      </trkpt>
      <trkpt lat="48.91172" lon="7.42791">
        <ele>209.69505257697</ele>
        <time>2021-03-30T12:14:32.430Z</time>
      </trkpt>
      <trkpt lat="48.91181" lon="7.4276">
        <ele>210.08027255042</ele>
        <time>2021-03-30T12:14:33.970Z</time>
      </trkpt>
      <trkpt lat="48.91185" lon="7.42747">
        <ele>210.51717202726</ele>
        <time>2021-03-30T12:14:35.513Z</time>
      </trkpt>
      <trkpt lat="48.91185" lon="7.42742">
        <ele>210.99292304867</ele>
        <time>2021-03-30T12:14:37.057Z</time>
      </trkpt>
      <trkpt lat="48.91185" lon="7.42734">
        <ele>211.46085068012</ele>
        <time>2021-03-30T12:14:38.603Z</time>
      </trkpt>
      <trkpt lat="48.91183" lon="7.42726">
        <ele>211.92373317044</ele>
        <time>2021-03-30T12:14:40.151Z</time>
      </trkpt>
      <trkpt lat="48.91181" lon="7.42721">
        <ele>212.37120352284</ele>
        <time>2021-03-30T12:14:41.700Z</time>
      </trkpt>
      <trkpt lat="48.91177" lon="7.42712">
        <ele>212.77100832149</ele>
        <time>2021-03-30T12:14:43.251Z</time>
      </trkpt>
      <trkpt lat="48.91173" lon="7.42708">
        <ele>213.14846959425</ele>
        <time>2021-03-30T12:14:44.804Z</time>
      </trkpt>
      <trkpt lat="48.91166" lon="7.42704">
        <ele>213.49854474424</ele>
        <time>2021-03-30T12:14:46.359Z</time>
      </trkpt>
      <trkpt lat="48.91161" lon="7.42704">
        <ele>213.81505919903</ele>
        <time>2021-03-30T12:14:47.916Z</time>
      </trkpt>
      <trkpt lat="48.91158" lon="7.42705">
        <ele>214.08747618959</ele>
        <time>2021-03-30T12:14:49.474Z</time>
      </trkpt>
      <trkpt lat="48.91154" lon="7.42708">
        <ele>214.32180433713</ele>
        <time>2021-03-30T12:14:51.034Z</time>
      </trkpt>
      <trkpt lat="48.9115" lon="7.42712">
        <ele>214.51042688776</ele>
        <time>2021-03-30T12:14:52.595Z</time>
      </trkpt>
      <trkpt lat="48.91147" lon="7.42718">
        <ele>214.64812013677</ele>
        <time>2021-03-30T12:14:54.158Z</time>
      </trkpt>
      <trkpt lat="48.91145" lon="7.42721">
        <ele>214.71662477679</ele>
        <time>2021-03-30T12:14:55.722Z</time>
      </trkpt>
      <trkpt lat="48.91139" lon="7.42732">
        <ele>214.75455422552</ele>
        <time>2021-03-30T12:14:57.289Z</time>
      </trkpt>
      <trkpt lat="48.91132" lon="7.42741">
        <ele>214.70645413578</ele>
        <time>2021-03-30T12:14:58.859Z</time>
      </trkpt>
      <trkpt lat="48.91126" lon="7.42745">
        <ele>214.59476645117</ele>
        <time>2021-03-30T12:15:00.431Z</time>
      </trkpt>
      <trkpt lat="48.91121" lon="7.42747">
        <ele>214.42652141356</ele>
        <time>2021-03-30T12:15:02.005Z</time>
      </trkpt>
      <trkpt lat="48.91119" lon="7.42746">
        <ele>214.21075221705</ele>
        <time>2021-03-30T12:15:03.580Z</time>
      </trkpt>
      <trkpt lat="48.91116" lon="7.42746">
        <ele>213.93570892628</ele>
        <time>2021-03-30T12:15:05.156Z</time>
      </trkpt>
      <trkpt lat="48.91114" lon="7.42745">
        <ele>213.62287796962</ele>
        <time>2021-03-30T12:15:06.732Z</time>
      </trkpt>
      <trkpt lat="48.91111" lon="7.42743">
        <ele>213.26178257961</ele>
        <time>2021-03-30T12:15:08.309Z</time>
      </trkpt>
      <trkpt lat="48.91104" lon="7.42736">
        <ele>212.84484147803</ele>
        <time>2021-03-30T12:15:09.889Z</time>
      </trkpt>
      <trkpt lat="48.91097" lon="7.42725">
        <ele>212.40219376698</ele>
        <time>2021-03-30T12:15:11.472Z</time>
      </trkpt>
      <trkpt lat="48.91085" lon="7.42696">
        <ele>211.88065035338</ele>
        <time>2021-03-30T12:15:13.063Z</time>
      </trkpt>
      <trkpt lat="48.91069" lon="7.42658">
        <ele>211.31185818841</ele>
        <time>2021-03-30T12:15:14.664Z</time>
      </trkpt>
      <trkpt lat="48.91051" lon="7.42601">
        <ele>210.81928956054</ele>
        <time>2021-03-30T12:15:16.279Z</time>
      </trkpt>
      <trkpt lat="48.91037" lon="7.42551">
        <ele>210.21650533037</ele>
        <time>2021-03-30T12:15:17.906Z</time>
      </trkpt>
      <trkpt lat="48.91035" lon="7.42535">
        <ele>209.69362457357</ele>
        <time>2021-03-30T12:15:19.536Z</time>
      </trkpt>
      <trkpt lat="48.91032" lon="7.42517">
        <ele>209.18568528203</ele>
        <time>2021-03-30T12:15:21.171Z</time>
      </trkpt>
      <trkpt lat="48.91032" lon="7.42505">
        <ele>208.67023370291</ele>
        <time>2021-03-30T12:15:22.808Z</time>
      </trkpt>
      <trkpt lat="48.91031" lon="7.42486">
        <ele>208.15536517325</ele>
        <time>2021-03-30T12:15:24.449Z</time>
      </trkpt>
      <trkpt lat="48.9103" lon="7.42471">
        <ele>207.64381852453</ele>
        <time>2021-03-30T12:15:26.094Z</time>
      </trkpt>
      <trkpt lat="48.9103" lon="7.42461">
        <ele>207.13683499985</ele>
        <time>2021-03-30T12:15:27.741Z</time>
      </trkpt>
      <trkpt lat="48.91031" lon="7.42448">
        <ele>206.60629898036</ele>
        <time>2021-03-30T12:15:29.391Z</time>
      </trkpt>
      <trkpt lat="48.91032" lon="7.42439">
        <ele>206.08942584895</ele>
        <time>2021-03-30T12:15:31.043Z</time>
      </trkpt>
      <trkpt lat="48.91036" lon="7.42426">
        <ele>205.57473358689</ele>
        <time>2021-03-30T12:15:32.698Z</time>
      </trkpt>
      <trkpt lat="48.91039" lon="7.4242">
        <ele>205.08667663277</ele>
        <time>2021-03-30T12:15:34.354Z</time>
      </trkpt>
      <trkpt lat="48.91044" lon="7.42411">
        <ele>204.58704720074</ele>
        <time>2021-03-30T12:15:36.013Z</time>
      </trkpt>
      <trkpt lat="48.91049" lon="7.42401">
        <ele>204.08013386473</ele>
        <time>2021-03-30T12:15:37.675Z</time>
      </trkpt>
      <trkpt lat="48.91054" lon="7.42391">
        <ele>203.60153313972</ele>
        <time>2021-03-30T12:15:39.339Z</time>
      </trkpt>
      <trkpt lat="48.91059" lon="7.42373">
        <ele>203.10842658596</ele>
        <time>2021-03-30T12:15:41.008Z</time>
      </trkpt>
      <trkpt lat="48.91061" lon="7.42363">
        <ele>202.73984088064</ele>
        <time>2021-03-30T12:15:42.679Z</time>
      </trkpt>
      <trkpt lat="48.91065" lon="7.4234">
        <ele>202.36673485056</ele>
        <time>2021-03-30T12:15:44.355Z</time>
      </trkpt>
      <trkpt lat="48.91074" lon="7.42285">
        <ele>202.14478671919</ele>
        <time>2021-03-30T12:15:46.044Z</time>
      </trkpt>
      <trkpt lat="48.91078" lon="7.42256">
        <ele>201.89903179777</ele>
        <time>2021-03-30T12:15:47.739Z</time>
      </trkpt>
      <trkpt lat="48.9108" lon="7.42239">
        <ele>201.56899639833</ele>
        <time>2021-03-30T12:15:49.438Z</time>
      </trkpt>
      <trkpt lat="48.9108" lon="7.42234">
        <ele>201.31584362596</ele>
        <time>2021-03-30T12:15:51.138Z</time>
      </trkpt>
      <trkpt lat="48.91086" lon="7.42176">
        <ele>201.03098158026</ele>
        <time>2021-03-30T12:15:52.851Z</time>
      </trkpt>
      <trkpt lat="48.91087" lon="7.42164">
        <ele>200.85026565771</ele>
        <time>2021-03-30T12:15:54.567Z</time>
      </trkpt>
      <trkpt lat="48.91079" lon="7.4216">
        <ele>200.65949125569</ele>
        <time>2021-03-30T12:15:56.286Z</time>
      </trkpt>
      <trkpt lat="48.91078" lon="7.42159">
        <ele>200.54402840261</ele>
        <time>2021-03-30T12:15:58.005Z</time>
      </trkpt>
      <trkpt lat="48.9107" lon="7.42151">
        <ele>200.41969176589</ele>
        <time>2021-03-30T12:15:59.727Z</time>
      </trkpt>
      <trkpt lat="48.9107" lon="7.42151">
        <ele>200.40907031952</ele>
        <time>2021-03-30T12:16:01.449Z</time>
      </trkpt>
      <trkpt lat="48.91059" lon="7.42138">
        <ele>200.44354813684</ele>
        <time>2021-03-30T12:16:03.176Z</time>
      </trkpt>
      <trkpt lat="48.91047" lon="7.42122">
        <ele>200.53869197152</ele>
        <time>2021-03-30T12:16:04.908Z</time>
      </trkpt>
      <trkpt lat="48.91045" lon="7.42118">
        <ele>200.6820995742</ele>
        <time>2021-03-30T12:16:06.641Z</time>
      </trkpt>
      <trkpt lat="48.9104" lon="7.42108">
        <ele>200.86285653314</ele>
        <time>2021-03-30T12:16:08.377Z</time>
      </trkpt>
      <trkpt lat="48.91033" lon="7.42093">
        <ele>201.15175013298</ele>
        <time>2021-03-30T12:16:10.117Z</time>
      </trkpt>
      <trkpt lat="48.91029" lon="7.42081">
        <ele>201.4539724274</ele>
        <time>2021-03-30T12:16:11.860Z</time>
      </trkpt>
      <trkpt lat="48.91019" lon="7.42053">
        <ele>201.85960464411</ele>
        <time>2021-03-30T12:16:13.610Z</time>
      </trkpt>
      <trkpt lat="48.91015" lon="7.42043">
        <ele>202.2069407923</ele>
        <time>2021-03-30T12:16:15.363Z</time>
      </trkpt>
      <trkpt lat="48.91005" lon="7.42031">
        <ele>202.61468072626</ele>
        <time>2021-03-30T12:16:17.120Z</time>
      </trkpt>
      <trkpt lat="48.91009" lon="7.4202">
        <ele>202.93343026534</ele>
        <time>2021-03-30T12:16:18.880Z</time>
      </trkpt>
      <trkpt lat="48.91013" lon="7.42014">
        <ele>203.27735827874</ele>
        <time>2021-03-30T12:16:20.641Z</time>
      </trkpt>
      <trkpt lat="48.91016" lon="7.42008">
        <ele>203.63344340087</ele>
        <time>2021-03-30T12:16:22.404Z</time>
      </trkpt>
      <trkpt lat="48.91021" lon="7.41994">
        <ele>204.01586965091</ele>
        <time>2021-03-30T12:16:24.171Z</time>
      </trkpt>
      <trkpt lat="48.91031" lon="7.41969">
        <ele>204.47397642387</ele>
        <time>2021-03-30T12:16:25.944Z</time>
      </trkpt>
      <trkpt lat="48.91038" lon="7.41951">
        <ele>204.88846149759</ele>
        <time>2021-03-30T12:16:27.722Z</time>
      </trkpt>
      <trkpt lat="48.91042" lon="7.41935">
        <ele>205.27495707698</ele>
        <time>2021-03-30T12:16:29.503Z</time>
      </trkpt>
      <trkpt lat="48.91048" lon="7.41914">
        <ele>205.65089869053</ele>
        <time>2021-03-30T12:16:31.289Z</time>
      </trkpt>
      <trkpt lat="48.91049" lon="7.41911">
        <ele>205.99577759339</ele>
        <time>2021-03-30T12:16:33.076Z</time>
      </trkpt>
      <trkpt lat="48.91057" lon="7.41879">
        <ele>206.37863497277</ele>
        <time>2021-03-30T12:16:34.871Z</time>
      </trkpt>
      <trkpt lat="48.91057" lon="7.41877">
        <ele>206.69976614005</ele>
        <time>2021-03-30T12:16:36.666Z</time>
      </trkpt>
      <trkpt lat="48.91054" lon="7.41856">
        <ele>207.06443720769</ele>
        <time>2021-03-30T12:16:38.466Z</time>
      </trkpt>
      <trkpt lat="48.91053" lon="7.41843">
        <ele>207.37757367841</ele>
        <time>2021-03-30T12:16:40.269Z</time>
      </trkpt>
      <trkpt lat="48.91053" lon="7.4183">
        <ele>207.66300034411</ele>
        <time>2021-03-30T12:16:42.075Z</time>
      </trkpt>
      <trkpt lat="48.91053" lon="7.4182">
        <ele>207.90386543665</ele>
        <time>2021-03-30T12:16:43.883Z</time>
      </trkpt>
      <trkpt lat="48.91055" lon="7.41808">
        <ele>208.14229484775</ele>
        <time>2021-03-30T12:16:45.693Z</time>
      </trkpt>
      <trkpt lat="48.91058" lon="7.418">
        <ele>208.34768997165</ele>
        <time>2021-03-30T12:16:47.506Z</time>
      </trkpt>
      <trkpt lat="48.91053" lon="7.41793">
        <ele>208.56444528986</ele>
        <time>2021-03-30T12:16:49.321Z</time>
      </trkpt>
      <trkpt lat="48.9105" lon="7.41789">
        <ele>208.77773341328</ele>
        <time>2021-03-30T12:16:51.137Z</time>
      </trkpt>
      <trkpt lat="48.91042" lon="7.41779">
        <ele>209.00449138634</ele>
        <time>2021-03-30T12:16:52.957Z</time>
      </trkpt>
      <trkpt lat="48.91032" lon="7.41767">
        <ele>209.21254427319</ele>
        <time>2021-03-30T12:16:54.781Z</time>
      </trkpt>
      <trkpt lat="48.91017" lon="7.41756">
        <ele>209.43210449512</ele>
        <time>2021-03-30T12:16:56.610Z</time>
      </trkpt>
      <trkpt lat="48.91006" lon="7.41747">
        <ele>209.68949287367</ele>
        <time>2021-03-30T12:16:58.444Z</time>
      </trkpt>
      <trkpt lat="48.91" lon="7.41744">
        <ele>209.99243854997</ele>
        <time>2021-03-30T12:17:00.280Z</time>
      </trkpt>
      <trkpt lat="48.90992" lon="7.4174">
        <ele>210.33273739972</ele>
        <time>2021-03-30T12:17:02.118Z</time>
      </trkpt>
      <trkpt lat="48.9098" lon="7.41736">
        <ele>210.72819144267</ele>
        <time>2021-03-30T12:17:03.961Z</time>
      </trkpt>
      <trkpt lat="48.90969" lon="7.41735">
        <ele>211.16367376968</ele>
        <time>2021-03-30T12:17:05.807Z</time>
      </trkpt>
      <trkpt lat="48.90953" lon="7.41736">
        <ele>211.61639537804</ele>
        <time>2021-03-30T12:17:07.659Z</time>
      </trkpt>
      <trkpt lat="48.90946" lon="7.41734">
        <ele>212.13185533324</ele>
        <time>2021-03-30T12:17:09.513Z</time>
      </trkpt>
      <trkpt lat="48.90932" lon="7.41732">
        <ele>212.74236727521</ele>
        <time>2021-03-30T12:17:11.372Z</time>
      </trkpt>
      <trkpt lat="48.90928" lon="7.41731">
        <ele>213.33781246588</ele>
        <time>2021-03-30T12:17:13.232Z</time>
      </trkpt>
      <trkpt lat="48.90926" lon="7.41731">
        <ele>213.96018003102</ele>
        <time>2021-03-30T12:17:15.093Z</time>
      </trkpt>
      <trkpt lat="48.9091" lon="7.41728">
        <ele>214.7209839528</ele>
        <time>2021-03-30T12:17:16.959Z</time>
      </trkpt>
      <trkpt lat="48.90885" lon="7.41721">
        <ele>215.53340681715</ele>
        <time>2021-03-30T12:17:18.834Z</time>
      </trkpt>
      <trkpt lat="48.90853" lon="7.41713">
        <ele>216.34154327433</ele>
        <time>2021-03-30T12:17:20.719Z</time>
      </trkpt>
      <trkpt lat="48.90826" lon="7.41709">
        <ele>217.13017609263</ele>
        <time>2021-03-30T12:17:22.613Z</time>
      </trkpt>
      <trkpt lat="48.90814" lon="7.41707">
        <ele>217.9176950351</ele>
        <time>2021-03-30T12:17:24.511Z</time>
      </trkpt>
      <trkpt lat="48.90804" lon="7.41704">
        <ele>218.74762601077</ele>
        <time>2021-03-30T12:17:26.413Z</time>
      </trkpt>
      <trkpt lat="48.90793" lon="7.417">
        <ele>219.62256287378</ele>
        <time>2021-03-30T12:17:28.319Z</time>
      </trkpt>
      <trkpt lat="48.90787" lon="7.41698">
        <ele>220.50356656784</ele>
        <time>2021-03-30T12:17:30.227Z</time>
      </trkpt>
      <trkpt lat="48.90785" lon="7.41697">
        <ele>221.38211193463</ele>
        <time>2021-03-30T12:17:32.135Z</time>
      </trkpt>
      <trkpt lat="48.90775" lon="7.41696">
        <ele>222.3161190236</ele>
        <time>2021-03-30T12:17:34.047Z</time>
      </trkpt>
      <trkpt lat="48.90753" lon="7.41695">
        <ele>223.30775964429</ele>
        <time>2021-03-30T12:17:35.966Z</time>
      </trkpt>
      <trkpt lat="48.90734" lon="7.41694">
        <ele>224.3111287566</ele>
        <time>2021-03-30T12:17:37.891Z</time>
      </trkpt>
      <trkpt lat="48.90712" lon="7.41693">
        <ele>225.43812049924</ele>
        <time>2021-03-30T12:17:39.824Z</time>
      </trkpt>
      <trkpt lat="48.90709" lon="7.41692">
        <ele>226.39161729715</ele>
        <time>2021-03-30T12:17:41.758Z</time>
      </trkpt>
      <trkpt lat="48.90702" lon="7.41689">
        <ele>227.38165811842</ele>
        <time>2021-03-30T12:17:43.694Z</time>
      </trkpt>
      <trkpt lat="48.90701" lon="7.41689">
        <ele>228.30066265776</ele>
        <time>2021-03-30T12:17:45.631Z</time>
      </trkpt>
      <trkpt lat="48.90693" lon="7.41683">
        <ele>229.28734520704</ele>
        <time>2021-03-30T12:17:47.570Z</time>
      </trkpt>
      <trkpt lat="48.90688" lon="7.4168">
        <ele>230.22561718582</ele>
        <time>2021-03-30T12:17:49.511Z</time>
      </trkpt>
      <trkpt lat="48.90687" lon="7.41678">
        <ele>231.10900267951</ele>
        <time>2021-03-30T12:17:51.453Z</time>
      </trkpt>
      <trkpt lat="48.90686" lon="7.41675">
        <ele>231.97844079406</ele>
        <time>2021-03-30T12:17:53.396Z</time>
      </trkpt>
      <trkpt lat="48.90686" lon="7.41672">
        <ele>232.82206911522</ele>
        <time>2021-03-30T12:17:55.339Z</time>
      </trkpt>
      <trkpt lat="48.90682" lon="7.4167">
        <ele>233.68361068955</ele>
        <time>2021-03-30T12:17:57.284Z</time>
      </trkpt>
      <trkpt lat="48.9068" lon="7.41666">
        <ele>234.51364532478</ele>
        <time>2021-03-30T12:17:59.230Z</time>
      </trkpt>
      <trkpt lat="48.90679" lon="7.41663">
        <ele>235.31344834962</ele>
        <time>2021-03-30T12:18:01.176Z</time>
      </trkpt>
      <trkpt lat="48.90678" lon="7.41658">
        <ele>236.09789312619</ele>
        <time>2021-03-30T12:18:03.124Z</time>
      </trkpt>
      <trkpt lat="48.90677" lon="7.41653">
        <ele>236.85591765409</ele>
        <time>2021-03-30T12:18:05.073Z</time>
      </trkpt>
      <trkpt lat="48.90677" lon="7.41645">
        <ele>237.59137353227</ele>
        <time>2021-03-30T12:18:07.024Z</time>
      </trkpt>
      <trkpt lat="48.90676" lon="7.41638">
        <ele>238.30070477691</ele>
        <time>2021-03-30T12:18:08.976Z</time>
      </trkpt>
      <trkpt lat="48.90673" lon="7.41621">
        <ele>238.98458790218</ele>
        <time>2021-03-30T12:18:10.932Z</time>
      </trkpt>
      <trkpt lat="48.90651" lon="7.41595">
        <ele>239.78446243435</ele>
        <time>2021-03-30T12:18:12.897Z</time>
      </trkpt>
      <trkpt lat="48.90631" lon="7.41568">
        <ele>240.41866505909</ele>
        <time>2021-03-30T12:18:14.871Z</time>
      </trkpt>
      <trkpt lat="48.90625" lon="7.41561">
        <ele>240.94321736782</ele>
        <time>2021-03-30T12:18:16.848Z</time>
      </trkpt>
      <trkpt lat="48.90612" lon="7.41535">
        <ele>241.45852274759</ele>
        <time>2021-03-30T12:18:18.832Z</time>
      </trkpt>
      <trkpt lat="48.90602" lon="7.41505">
        <ele>241.94624085597</ele>
        <time>2021-03-30T12:18:20.823Z</time>
      </trkpt>
      <trkpt lat="48.90596" lon="7.41469">
        <ele>242.36873613989</ele>
        <time>2021-03-30T12:18:22.822Z</time>
      </trkpt>
      <trkpt lat="48.90591" lon="7.41421">
        <ele>242.6671148936</ele>
        <time>2021-03-30T12:18:24.832Z</time>
      </trkpt>
      <trkpt lat="48.90588" lon="7.41371">
        <ele>242.73776635324</ele>
        <time>2021-03-30T12:18:26.853Z</time>
      </trkpt>
      <trkpt lat="48.90594" lon="7.41284">
        <ele>242.94596804457</ele>
        <time>2021-03-30T12:18:28.893Z</time>
      </trkpt>
      <trkpt lat="48.90593" lon="7.41234">
        <ele>242.92576838852</ele>
        <time>2021-03-30T12:18:30.944Z</time>
      </trkpt>
      <trkpt lat="48.9059" lon="7.41184">
        <ele>242.72525730112</ele>
        <time>2021-03-30T12:18:33.007Z</time>
      </trkpt>
      <trkpt lat="48.9058" lon="7.41125">
        <ele>242.2494565568</ele>
        <time>2021-03-30T12:18:35.083Z</time>
      </trkpt>
      <trkpt lat="48.90568" lon="7.41063">
        <ele>241.62586189191</ele>
        <time>2021-03-30T12:18:37.173Z</time>
      </trkpt>
      <trkpt lat="48.90564" lon="7.41033">
        <ele>241.10037163607</ele>
        <time>2021-03-30T12:18:39.270Z</time>
      </trkpt>
      <trkpt lat="48.90563" lon="7.41019">
        <ele>240.66147215368</ele>
        <time>2021-03-30T12:18:41.370Z</time>
      </trkpt>
      <trkpt lat="48.90549" lon="7.40861">
        <ele>240.45677783025</ele>
        <time>2021-03-30T12:18:43.505Z</time>
      </trkpt>
      <trkpt lat="48.90541" lon="7.40834">
        <ele>239.97601159734</ele>
        <time>2021-03-30T12:18:45.647Z</time>
      </trkpt>
      <trkpt lat="48.90535" lon="7.40814">
        <ele>239.51346246614</ele>
        <time>2021-03-30T12:18:47.793Z</time>
      </trkpt>
      <trkpt lat="48.90529" lon="7.40801">
        <ele>239.10066742967</ele>
        <time>2021-03-30T12:18:49.943Z</time>
      </trkpt>
      <trkpt lat="48.90524" lon="7.4079">
        <ele>238.72596790434</ele>
        <time>2021-03-30T12:18:52.096Z</time>
      </trkpt>
      <trkpt lat="48.90517" lon="7.4078">
        <ele>238.41108549687</ele>
        <time>2021-03-30T12:18:54.252Z</time>
      </trkpt>
      <trkpt lat="48.90511" lon="7.40772">
        <ele>238.15617340416</ele>
        <time>2021-03-30T12:18:56.411Z</time>
      </trkpt>
      <trkpt lat="48.90504" lon="7.40768">
        <ele>237.98794135713</ele>
        <time>2021-03-30T12:18:58.572Z</time>
      </trkpt>
      <trkpt lat="48.90499" lon="7.40763">
        <ele>237.87275618098</ele>
        <time>2021-03-30T12:19:00.735Z</time>
      </trkpt>
      <trkpt lat="48.90496" lon="7.40759">
        <ele>237.81929618779</ele>
        <time>2021-03-30T12:19:02.899Z</time>
      </trkpt>
      <trkpt lat="48.90491" lon="7.40752">
        <ele>237.83988252704</ele>
        <time>2021-03-30T12:19:05.066Z</time>
      </trkpt>
      <trkpt lat="48.90488" lon="7.40747">
        <ele>237.92816601047</ele>
        <time>2021-03-30T12:19:07.234Z</time>
      </trkpt>
      <trkpt lat="48.90481" lon="7.40739">
        <ele>238.08432534414</ele>
        <time>2021-03-30T12:19:09.405Z</time>
      </trkpt>
      <trkpt lat="48.90471" lon="7.40733">
        <ele>238.33668723706</ele>
        <time>2021-03-30T12:19:11.580Z</time>
      </trkpt>
      <trkpt lat="48.90458" lon="7.40728">
        <ele>238.69210231977</ele>
        <time>2021-03-30T12:19:13.759Z</time>
      </trkpt>
      <trkpt lat="48.90449" lon="7.40721">
        <ele>239.09226462319</ele>
        <time>2021-03-30T12:19:15.942Z</time>
      </trkpt>
      <trkpt lat="48.9044" lon="7.40713">
        <ele>239.55216310965</ele>
        <time>2021-03-30T12:19:18.128Z</time>
      </trkpt>
      <trkpt lat="48.90431" lon="7.40706">
        <ele>240.07433210408</ele>
        <time>2021-03-30T12:19:20.317Z</time>
      </trkpt>
      <trkpt lat="48.90423" lon="7.40701">
        <ele>240.64950159112</ele>
        <time>2021-03-30T12:19:22.509Z</time>
      </trkpt>
      <trkpt lat="48.90415" lon="7.40699">
        <ele>241.28601108699</ele>
        <time>2021-03-30T12:19:24.704Z</time>
      </trkpt>
      <trkpt lat="48.90405" lon="7.40698">
        <ele>241.97678119039</ele>
        <time>2021-03-30T12:19:26.902Z</time>
      </trkpt>
      <trkpt lat="48.90388" lon="7.40703">
        <ele>242.74796055707</ele>
        <time>2021-03-30T12:19:29.106Z</time>
      </trkpt>
      <trkpt lat="48.9037" lon="7.4071">
        <ele>243.48354240566</ele>
        <time>2021-03-30T12:19:31.316Z</time>
      </trkpt>
      <trkpt lat="48.90354" lon="7.40714">
        <ele>244.15886225215</ele>
        <time>2021-03-30T12:19:33.532Z</time>
      </trkpt>
      <trkpt lat="48.90338" lon="7.40716">
        <ele>244.82649055727</ele>
        <time>2021-03-30T12:19:35.753Z</time>
      </trkpt>
      <trkpt lat="48.90314" lon="7.40717">
        <ele>245.46681128416</ele>
        <time>2021-03-30T12:19:37.982Z</time>
      </trkpt>
      <trkpt lat="48.90292" lon="7.40717">
        <ele>246.1350519091</ele>
        <time>2021-03-30T12:19:40.218Z</time>
      </trkpt>
      <trkpt lat="48.90275" lon="7.40715">
        <ele>246.89138377617</ele>
        <time>2021-03-30T12:19:42.460Z</time>
      </trkpt>
      <trkpt lat="48.90259" lon="7.40712">
        <ele>247.61762558251</ele>
        <time>2021-03-30T12:19:44.708Z</time>
      </trkpt>
      <trkpt lat="48.90223" lon="7.40697">
        <ele>248.24832609438</ele>
        <time>2021-03-30T12:19:46.968Z</time>
      </trkpt>
      <trkpt lat="48.90199" lon="7.40686">
        <ele>248.73999164616</ele>
        <time>2021-03-30T12:19:49.236Z</time>
      </trkpt>
      <trkpt lat="48.90173" lon="7.40675">
        <ele>249.266686884</ele>
        <time>2021-03-30T12:19:51.513Z</time>
      </trkpt>
      <trkpt lat="48.90164" lon="7.4067">
        <ele>249.75354214044</ele>
        <time>2021-03-30T12:19:53.794Z</time>
      </trkpt>
      <trkpt lat="48.90153" lon="7.40664">
        <ele>250.23956560309</ele>
        <time>2021-03-30T12:19:56.078Z</time>
      </trkpt>
      <trkpt lat="48.90135" lon="7.40653">
        <ele>250.71697185429</ele>
        <time>2021-03-30T12:19:58.369Z</time>
      </trkpt>
      <trkpt lat="48.90124" lon="7.40642">
        <ele>251.22513130803</ele>
        <time>2021-03-30T12:20:00.664Z</time>
      </trkpt>
      <trkpt lat="48.90115" lon="7.40632">
        <ele>251.78165599541</ele>
        <time>2021-03-30T12:20:02.963Z</time>
      </trkpt>
      <trkpt lat="48.90099" lon="7.40604">
        <ele>252.36560100554</ele>
        <time>2021-03-30T12:20:05.270Z</time>
      </trkpt>
      <trkpt lat="48.90093" lon="7.40574">
        <ele>253.13013933467</ele>
        <time>2021-03-30T12:20:07.584Z</time>
      </trkpt>
      <trkpt lat="48.90085" lon="7.4054">
        <ele>254.04209128779</ele>
        <time>2021-03-30T12:20:09.906Z</time>
      </trkpt>
      <trkpt lat="48.90075" lon="7.40507">
        <ele>255.11594293187</ele>
        <time>2021-03-30T12:20:12.236Z</time>
      </trkpt>
      <trkpt lat="48.90063" lon="7.40477">
        <ele>256.21066271068</ele>
        <time>2021-03-30T12:20:14.574Z</time>
      </trkpt>
      <trkpt lat="48.90057" lon="7.40464">
        <ele>257.30532844726</ele>
        <time>2021-03-30T12:20:16.915Z</time>
      </trkpt>
      <trkpt lat="48.90046" lon="7.4044">
        <ele>258.55946981725</ele>
        <time>2021-03-30T12:20:19.263Z</time>
      </trkpt>
      <trkpt lat="48.9004" lon="7.40428">
        <ele>259.81517930043</ele>
        <time>2021-03-30T12:20:21.614Z</time>
      </trkpt>
      <trkpt lat="48.90032" lon="7.40419">
        <ele>261.1567583004</ele>
        <time>2021-03-30T12:20:23.968Z</time>
      </trkpt>
      <trkpt lat="48.90024" lon="7.40411">
        <ele>262.55682404609</ele>
        <time>2021-03-30T12:20:26.325Z</time>
      </trkpt>
      <trkpt lat="48.90015" lon="7.40397">
        <ele>264.0260764342</ele>
        <time>2021-03-30T12:20:28.687Z</time>
      </trkpt>
      <trkpt lat="48.90007" lon="7.40382">
        <ele>265.52819658752</ele>
        <time>2021-03-30T12:20:31.053Z</time>
      </trkpt>
      <trkpt lat="48.89998" lon="7.40355">
        <ele>267.05758869424</ele>
        <time>2021-03-30T12:20:33.426Z</time>
      </trkpt>
      <trkpt lat="48.89994" lon="7.40343">
        <ele>268.69202155439</ele>
        <time>2021-03-30T12:20:35.802Z</time>
      </trkpt>
      <trkpt lat="48.89986" lon="7.40314">
        <ele>270.38402338536</ele>
        <time>2021-03-30T12:20:38.185Z</time>
      </trkpt>
      <trkpt lat="48.89982" lon="7.40301">
        <ele>272.15337657967</ele>
        <time>2021-03-30T12:20:40.571Z</time>
      </trkpt>
      <trkpt lat="48.89962" lon="7.40244">
        <ele>274.07897958953</ele>
        <time>2021-03-30T12:20:42.971Z</time>
      </trkpt>
      <trkpt lat="48.89943" lon="7.40188">
        <ele>275.92139715517</ele>
        <time>2021-03-30T12:20:45.385Z</time>
      </trkpt>
      <trkpt lat="48.89919" lon="7.40122">
        <ele>278.10814411946</ele>
        <time>2021-03-30T12:20:47.815Z</time>
      </trkpt>
      <trkpt lat="48.89892" lon="7.40058">
        <ele>280.43450078224</ele>
        <time>2021-03-30T12:20:50.262Z</time>
      </trkpt>
      <trkpt lat="48.89873" lon="7.39962">
        <ele>282.61563038281</ele>
        <time>2021-03-30T12:20:52.731Z</time>
      </trkpt>
      <trkpt lat="48.89858" lon="7.39931">
        <ele>284.75618011764</ele>
        <time>2021-03-30T12:20:55.209Z</time>
      </trkpt>
      <trkpt lat="48.89838" lon="7.39895">
        <ele>286.98552496972</ele>
        <time>2021-03-30T12:20:57.697Z</time>
      </trkpt>
      <trkpt lat="48.89755" lon="7.39781">
        <ele>288.7552408868</ele>
        <time>2021-03-30T12:21:00.222Z</time>
      </trkpt>
      <trkpt lat="48.89759" lon="7.39772">
        <ele>290.4365226233</ele>
        <time>2021-03-30T12:21:02.750Z</time>
      </trkpt>
      <trkpt lat="48.89768" lon="7.3976">
        <ele>292.05238791061</ele>
        <time>2021-03-30T12:21:05.282Z</time>
      </trkpt>
      <trkpt lat="48.89744" lon="7.3972">
        <ele>293.82475043719</ele>
        <time>2021-03-30T12:21:07.825Z</time>
      </trkpt>
      <trkpt lat="48.89725" lon="7.3969">
        <ele>295.39243739554</ele>
        <time>2021-03-30T12:21:10.378Z</time>
      </trkpt>
      <trkpt lat="48.89723" lon="7.39699">
        <ele>296.64639922959</ele>
        <time>2021-03-30T12:21:12.933Z</time>
      </trkpt>
      <trkpt lat="48.89718" lon="7.39713">
        <ele>297.78675474872</ele>
        <time>2021-03-30T12:21:15.492Z</time>
      </trkpt>
      <trkpt lat="48.89711" lon="7.39728">
        <ele>298.80302007032</ele>
        <time>2021-03-30T12:21:18.054Z</time>
      </trkpt>
      <trkpt lat="48.89709" lon="7.39735">
        <ele>299.69301531708</ele>
        <time>2021-03-30T12:21:20.618Z</time>
      </trkpt>
      <trkpt lat="48.89707" lon="7.39743">
        <ele>300.45113080334</ele>
        <time>2021-03-30T12:21:23.184Z</time>
      </trkpt>
      <trkpt lat="48.89704" lon="7.39749">
        <ele>301.09634764985</ele>
        <time>2021-03-30T12:21:25.752Z</time>
      </trkpt>
      <trkpt lat="48.897" lon="7.39755">
        <ele>301.63333449684</ele>
        <time>2021-03-30T12:21:28.322Z</time>
      </trkpt>
      <trkpt lat="48.89696" lon="7.39762">
        <ele>302.06574096533</ele>
        <time>2021-03-30T12:21:30.894Z</time>
      </trkpt>
      <trkpt lat="48.89691" lon="7.39768">
        <ele>302.4236236664</ele>
        <time>2021-03-30T12:21:33.468Z</time>
      </trkpt>
      <trkpt lat="48.89684" lon="7.39774">
        <ele>302.71886180461</ele>
        <time>2021-03-30T12:21:36.045Z</time>
      </trkpt>
      <trkpt lat="48.89676" lon="7.39778">
        <ele>302.94120576129</ele>
        <time>2021-03-30T12:21:38.624Z</time>
      </trkpt>
      <trkpt lat="48.89668" lon="7.39781">
        <ele>303.0754724179</ele>
        <time>2021-03-30T12:21:41.206Z</time>
      </trkpt>
      <trkpt lat="48.89668" lon="7.39781">
        <ele>303.24489845973</ele>
        <time>2021-03-30T12:21:43.788Z</time>
      </trkpt>
      <trkpt lat="48.8966" lon="7.39785">
        <ele>303.24010000407</ele>
        <time>2021-03-30T12:21:46.373Z</time>
      </trkpt>
      <trkpt lat="48.89649" lon="7.3979">
        <ele>303.22818488562</ele>
        <time>2021-03-30T12:21:48.962Z</time>
      </trkpt>
      <trkpt lat="48.89641" lon="7.39792">
        <ele>303.17053259774</ele>
        <time>2021-03-30T12:21:51.553Z</time>
      </trkpt>
      <trkpt lat="48.89631" lon="7.39795">
        <ele>303.10260427453</ele>
        <time>2021-03-30T12:21:54.148Z</time>
      </trkpt>
      <trkpt lat="48.89622" lon="7.39798">
        <ele>303.00492590641</ele>
        <time>2021-03-30T12:21:56.746Z</time>
      </trkpt>
      <trkpt lat="48.8961" lon="7.39802">
        <ele>302.84514639246</ele>
        <time>2021-03-30T12:21:59.348Z</time>
      </trkpt>
      <trkpt lat="48.896" lon="7.39807">
        <ele>302.64405258857</ele>
        <time>2021-03-30T12:22:01.953Z</time>
      </trkpt>
      <trkpt lat="48.89591" lon="7.39813">
        <ele>302.39624348896</ele>
        <time>2021-03-30T12:22:04.562Z</time>
      </trkpt>
      <trkpt lat="48.89582" lon="7.39821">
        <ele>302.09778839819</ele>
        <time>2021-03-30T12:22:07.174Z</time>
      </trkpt>
      <trkpt lat="48.89562" lon="7.39805">
        <ele>301.80042058103</ele>
        <time>2021-03-30T12:22:09.794Z</time>
      </trkpt>
      <trkpt lat="48.8955" lon="7.39799">
        <ele>301.42464034865</ele>
        <time>2021-03-30T12:22:12.418Z</time>
      </trkpt>
      <trkpt lat="48.89536" lon="7.39796">
        <ele>300.97588392493</ele>
        <time>2021-03-30T12:22:15.047Z</time>
      </trkpt>
      <trkpt lat="48.89545" lon="7.39768">
        <ele>300.45959717346</ele>
        <time>2021-03-30T12:22:17.683Z</time>
      </trkpt>
      <trkpt lat="48.89541" lon="7.39748">
        <ele>299.8377932858</ele>
        <time>2021-03-30T12:22:20.323Z</time>
      </trkpt>
      <trkpt lat="48.89536" lon="7.39739">
        <ele>299.05992953211</ele>
        <time>2021-03-30T12:22:22.966Z</time>
      </trkpt>
      <trkpt lat="48.89523" lon="7.3973">
        <ele>298.15004321308</ele>
        <time>2021-03-30T12:22:25.614Z</time>
      </trkpt>
      <trkpt lat="48.89465" lon="7.39701">
        <ele>296.85620594399</ele>
        <time>2021-03-30T12:22:28.282Z</time>
      </trkpt>
      <trkpt lat="48.89454" lon="7.39692">
        <ele>295.65299323916</ele>
        <time>2021-03-30T12:22:30.954Z</time>
      </trkpt>
      <trkpt lat="48.89451" lon="7.39686">
        <ele>294.41181307335</ele>
        <time>2021-03-30T12:22:33.628Z</time>
      </trkpt>
      <trkpt lat="48.89447" lon="7.39673">
        <ele>293.06324617618</ele>
        <time>2021-03-30T12:22:36.305Z</time>
      </trkpt>
      <trkpt lat="48.89446" lon="7.39652">
        <ele>291.63949232828</ele>
        <time>2021-03-30T12:22:38.987Z</time>
      </trkpt>
      <trkpt lat="48.89442" lon="7.39615">
        <ele>290.16467863574</ele>
        <time>2021-03-30T12:22:41.677Z</time>
      </trkpt>
      <trkpt lat="48.89438" lon="7.39601">
        <ele>288.57462307618</ele>
        <time>2021-03-30T12:22:44.370Z</time>
      </trkpt>
      <trkpt lat="48.89431" lon="7.39586">
        <ele>286.87289094711</ele>
        <time>2021-03-30T12:22:47.067Z</time>
      </trkpt>
      <trkpt lat="48.89422" lon="7.39575">
        <ele>285.09162464581</ele>
        <time>2021-03-30T12:22:49.768Z</time>
      </trkpt>
      <trkpt lat="48.89359" lon="7.39523">
        <ele>282.73025447759</ele>
        <time>2021-03-30T12:22:52.493Z</time>
      </trkpt>
      <trkpt lat="48.89352" lon="7.39514">
        <ele>280.9017038903</ele>
        <time>2021-03-30T12:22:55.221Z</time>
      </trkpt>
      <trkpt lat="48.89348" lon="7.395">
        <ele>279.04698984409</ele>
        <time>2021-03-30T12:22:57.952Z</time>
      </trkpt>
      <trkpt lat="48.89346" lon="7.39458">
        <ele>277.11295654779</ele>
        <time>2021-03-30T12:23:00.693Z</time>
      </trkpt>
      <trkpt lat="48.89344" lon="7.39428">
        <ele>275.36979557889</ele>
        <time>2021-03-30T12:23:03.440Z</time>
      </trkpt>
      <trkpt lat="48.89341" lon="7.39411">
        <ele>273.67894731864</ele>
        <time>2021-03-30T12:23:06.191Z</time>
      </trkpt>
      <trkpt lat="48.89318" lon="7.39378">
        <ele>272.03931277657</ele>
        <time>2021-03-30T12:23:08.953Z</time>
      </trkpt>
      <trkpt lat="48.89308" lon="7.39377">
        <ele>270.27273053019</ele>
        <time>2021-03-30T12:23:11.718Z</time>
      </trkpt>
      <trkpt lat="48.89301" lon="7.39374">
        <ele>268.54649687437</ele>
        <time>2021-03-30T12:23:14.486Z</time>
      </trkpt>
      <trkpt lat="48.89294" lon="7.3937">
        <ele>266.85830112391</ele>
        <time>2021-03-30T12:23:17.256Z</time>
      </trkpt>
      <trkpt lat="48.89286" lon="7.39359">
        <ele>265.19151849727</ele>
        <time>2021-03-30T12:23:20.030Z</time>
      </trkpt>
      <trkpt lat="48.89271" lon="7.39341">
        <ele>263.46835233741</ele>
        <time>2021-03-30T12:23:22.810Z</time>
      </trkpt>
      <trkpt lat="48.89249" lon="7.39311">
        <ele>261.61686515982</ele>
        <time>2021-03-30T12:23:25.600Z</time>
      </trkpt>
      <trkpt lat="48.89233" lon="7.39287">
        <ele>259.81127828132</ele>
        <time>2021-03-30T12:23:28.397Z</time>
      </trkpt>
      <trkpt lat="48.89215" lon="7.39265">
        <ele>258.17695181933</ele>
        <time>2021-03-30T12:23:31.202Z</time>
      </trkpt>
      <trkpt lat="48.89197" lon="7.39247">
        <ele>256.5537305628</ele>
        <time>2021-03-30T12:23:34.014Z</time>
      </trkpt>
      <trkpt lat="48.89188" lon="7.39235">
        <ele>254.9867501207</ele>
        <time>2021-03-30T12:23:36.830Z</time>
      </trkpt>
      <trkpt lat="48.89181" lon="7.39221">
        <ele>253.48546278181</ele>
        <time>2021-03-30T12:23:39.650Z</time>
      </trkpt>
      <trkpt lat="48.89171" lon="7.39205">
        <ele>252.04815663611</ele>
        <time>2021-03-30T12:23:42.475Z</time>
      </trkpt>
      <trkpt lat="48.89159" lon="7.3919">
        <ele>250.69509925562</ele>
        <time>2021-03-30T12:23:45.305Z</time>
      </trkpt>
      <trkpt lat="48.89143" lon="7.3917">
        <ele>249.49894838296</ele>
        <time>2021-03-30T12:23:48.142Z</time>
      </trkpt>
      <trkpt lat="48.89132" lon="7.39155">
        <ele>248.38642241514</ele>
        <time>2021-03-30T12:23:50.984Z</time>
      </trkpt>
      <trkpt lat="48.89123" lon="7.39136">
        <ele>247.33491406753</ele>
        <time>2021-03-30T12:23:53.831Z</time>
      </trkpt>
      <trkpt lat="48.89112" lon="7.39109">
        <ele>246.22273708811</ele>
        <time>2021-03-30T12:23:56.685Z</time>
      </trkpt>
      <trkpt lat="48.89104" lon="7.39083">
        <ele>245.25258775439</ele>
        <time>2021-03-30T12:23:59.545Z</time>
      </trkpt>
      <trkpt lat="48.89098" lon="7.39055">
        <ele>244.40523608702</ele>
        <time>2021-03-30T12:24:02.412Z</time>
      </trkpt>
      <trkpt lat="48.89083" lon="7.38976">
        <ele>243.48877340111</ele>
        <time>2021-03-30T12:24:05.297Z</time>
      </trkpt>
      <trkpt lat="48.89075" lon="7.38935">
        <ele>242.76429171387</ele>
        <time>2021-03-30T12:24:08.192Z</time>
      </trkpt>
      <trkpt lat="48.89068" lon="7.38901">
        <ele>242.16130680771</ele>
        <time>2021-03-30T12:24:11.094Z</time>
      </trkpt>
      <trkpt lat="48.89065" lon="7.38892">
        <ele>241.69989417326</ele>
        <time>2021-03-30T12:24:13.998Z</time>
      </trkpt>
      <trkpt lat="48.89061" lon="7.38887">
        <ele>241.34179114169</ele>
        <time>2021-03-30T12:24:16.904Z</time>
      </trkpt>
      <trkpt lat="48.89046" lon="7.38869">
        <ele>241.00480165101</ele>
        <time>2021-03-30T12:24:19.817Z</time>
      </trkpt>
      <trkpt lat="48.89014" lon="7.38836">
        <ele>240.8166402602</ele>
        <time>2021-03-30T12:24:22.742Z</time>
      </trkpt>
      <trkpt lat="48.88983" lon="7.38808">
        <ele>240.78261479851</ele>
        <time>2021-03-30T12:24:25.680Z</time>
      </trkpt>
      <trkpt lat="48.88962" lon="7.38791">
        <ele>241.00923214493</ele>
        <time>2021-03-30T12:24:28.626Z</time>
      </trkpt>
      <trkpt lat="48.88959" lon="7.38788">
        <ele>241.16543414541</ele>
        <time>2021-03-30T12:24:31.573Z</time>
      </trkpt>
      <trkpt lat="48.88955" lon="7.38784">
        <ele>241.38631613967</ele>
        <time>2021-03-30T12:24:34.521Z</time>
      </trkpt>
      <trkpt lat="48.88952" lon="7.38778">
        <ele>241.66897260727</ele>
        <time>2021-03-30T12:24:37.471Z</time>
      </trkpt>
      <trkpt lat="48.8895" lon="7.38779">
        <ele>241.9596051128</ele>
        <time>2021-03-30T12:24:40.422Z</time>
      </trkpt>
      <trkpt lat="48.88945" lon="7.3878">
        <ele>242.30378996163</ele>
        <time>2021-03-30T12:24:43.374Z</time>
      </trkpt>
      <trkpt lat="48.88938" lon="7.38779">
        <ele>242.67665684689</ele>
        <time>2021-03-30T12:24:46.328Z</time>
      </trkpt>
      <trkpt lat="48.88934" lon="7.38778">
        <ele>243.04068733183</ele>
        <time>2021-03-30T12:24:49.284Z</time>
      </trkpt>
      <trkpt lat="48.88925" lon="7.38777">
        <ele>243.39694622837</ele>
        <time>2021-03-30T12:24:52.243Z</time>
      </trkpt>
      <trkpt lat="48.88918" lon="7.38778">
        <ele>243.68449796553</ele>
        <time>2021-03-30T12:24:55.204Z</time>
      </trkpt>
      <trkpt lat="48.88911" lon="7.3878">
        <ele>243.94274236757</ele>
        <time>2021-03-30T12:24:58.168Z</time>
      </trkpt>
      <trkpt lat="48.88904" lon="7.38783">
        <ele>244.17535487455</ele>
        <time>2021-03-30T12:25:01.134Z</time>
      </trkpt>
      <trkpt lat="48.88898" lon="7.3879">
        <ele>244.36681529206</ele>
        <time>2021-03-30T12:25:04.103Z</time>
      </trkpt>
      <trkpt lat="48.88894" lon="7.38796">
        <ele>244.50084083206</ele>
        <time>2021-03-30T12:25:07.073Z</time>
      </trkpt>
      <trkpt lat="48.8889" lon="7.38808">
        <ele>244.6115702815</ele>
        <time>2021-03-30T12:25:10.047Z</time>
      </trkpt>
      <trkpt lat="48.88884" lon="7.38832">
        <ele>244.69929778126</ele>
        <time>2021-03-30T12:25:13.026Z</time>
      </trkpt>
      <trkpt lat="48.88881" lon="7.38847">
        <ele>244.74771247509</ele>
        <time>2021-03-30T12:25:16.009Z</time>
      </trkpt>
      <trkpt lat="48.88865" lon="7.38832">
        <ele>244.69184975406</ele>
        <time>2021-03-30T12:25:18.998Z</time>
      </trkpt>
      <trkpt lat="48.88854" lon="7.38827">
        <ele>244.59214103405</ele>
        <time>2021-03-30T12:25:21.991Z</time>
      </trkpt>
      <trkpt lat="48.8884" lon="7.38826">
        <ele>244.46283960541</ele>
        <time>2021-03-30T12:25:24.988Z</time>
      </trkpt>
      <trkpt lat="48.88827" lon="7.38824">
        <ele>244.2821598424</ele>
        <time>2021-03-30T12:25:27.990Z</time>
      </trkpt>
      <trkpt lat="48.88819" lon="7.38821">
        <ele>244.02200396189</ele>
        <time>2021-03-30T12:25:30.994Z</time>
      </trkpt>
      <trkpt lat="48.88811" lon="7.38814">
        <ele>243.69241446906</ele>
        <time>2021-03-30T12:25:34.002Z</time>
      </trkpt>
      <trkpt lat="48.88795" lon="7.3878">
        <ele>243.31114460635</ele>
        <time>2021-03-30T12:25:37.019Z</time>
      </trkpt>
      <trkpt lat="48.88778" lon="7.38756">
        <ele>242.78931790037</ele>
        <time>2021-03-30T12:25:40.043Z</time>
      </trkpt>
      <trkpt lat="48.88755" lon="7.38731">
        <ele>242.11527396365</ele>
        <time>2021-03-30T12:25:43.077Z</time>
      </trkpt>
      <trkpt lat="48.88735" lon="7.38709">
        <ele>241.40864201878</ele>
        <time>2021-03-30T12:25:46.119Z</time>
      </trkpt>
      <trkpt lat="48.88712" lon="7.38686">
        <ele>240.77222997076</ele>
        <time>2021-03-30T12:25:49.170Z</time>
      </trkpt>
      <trkpt lat="48.88684" lon="7.38658">
        <ele>240.00771570965</ele>
        <time>2021-03-30T12:25:52.233Z</time>
      </trkpt>
      <trkpt lat="48.88666" lon="7.38636">
        <ele>239.24626619452</ele>
        <time>2021-03-30T12:25:55.303Z</time>
      </trkpt>
      <trkpt lat="48.88662" lon="7.38632">
        <ele>238.45034274876</ele>
        <time>2021-03-30T12:25:58.375Z</time>
      </trkpt>
      <trkpt lat="48.88658" lon="7.38628">
        <ele>237.63103820911</ele>
        <time>2021-03-30T12:26:01.448Z</time>
      </trkpt>
      <trkpt lat="48.88649" lon="7.38619">
        <ele>236.78911734701</ele>
        <time>2021-03-30T12:26:04.525Z</time>
      </trkpt>
      <trkpt lat="48.88629" lon="7.38603">
        <ele>235.95428897596</ele>
        <time>2021-03-30T12:26:07.610Z</time>
      </trkpt>
      <trkpt lat="48.88609" lon="7.38588">
        <ele>235.13791161026</ele>
        <time>2021-03-30T12:26:10.702Z</time>
      </trkpt>
      <trkpt lat="48.88593" lon="7.38574">
        <ele>234.34998226845</ele>
        <time>2021-03-30T12:26:13.800Z</time>
      </trkpt>
      <trkpt lat="48.88557" lon="7.38544">
        <ele>233.39240348051</ele>
        <time>2021-03-30T12:26:16.912Z</time>
      </trkpt>
      <trkpt lat="48.88535" lon="7.38526">
        <ele>232.61891518807</ele>
        <time>2021-03-30T12:26:20.032Z</time>
      </trkpt>
      <trkpt lat="48.88521" lon="7.38514">
        <ele>231.98341727478</ele>
        <time>2021-03-30T12:26:23.158Z</time>
      </trkpt>
      <trkpt lat="48.88515" lon="7.38507">
        <ele>231.46830263198</ele>
        <time>2021-03-30T12:26:26.286Z</time>
      </trkpt>
      <trkpt lat="48.8851" lon="7.38501">
        <ele>231.06897518019</ele>
        <time>2021-03-30T12:26:29.416Z</time>
      </trkpt>
      <trkpt lat="48.88496" lon="7.3848">
        <ele>230.74893522902</ele>
        <time>2021-03-30T12:26:32.553Z</time>
      </trkpt>
      <trkpt lat="48.88478" lon="7.38459">
        <ele>230.57951277717</ele>
        <time>2021-03-30T12:26:35.697Z</time>
      </trkpt>
      <trkpt lat="48.88466" lon="7.38442">
        <ele>230.63108781472</ele>
        <time>2021-03-30T12:26:38.847Z</time>
      </trkpt>
      <trkpt lat="48.88451" lon="7.38421">
        <ele>230.84485520362</ele>
        <time>2021-03-30T12:26:42.004Z</time>
      </trkpt>
      <trkpt lat="48.88441" lon="7.38404">
        <ele>231.20408958438</ele>
        <time>2021-03-30T12:26:45.166Z</time>
      </trkpt>
      <trkpt lat="48.88432" lon="7.38383">
        <ele>231.72711921561</ele>
        <time>2021-03-30T12:26:48.333Z</time>
      </trkpt>
      <trkpt lat="48.8842" lon="7.38354">
        <ele>232.46846046999</ele>
        <time>2021-03-30T12:26:51.508Z</time>
      </trkpt>
      <trkpt lat="48.88408" lon="7.38332">
        <ele>233.4517168343</ele>
        <time>2021-03-30T12:26:54.689Z</time>
      </trkpt>
      <trkpt lat="48.88397" lon="7.38336">
        <ele>234.67337325518</ele>
        <time>2021-03-30T12:26:57.874Z</time>
      </trkpt>
      <trkpt lat="48.88397" lon="7.38335">
        <ele>236.01852034152</ele>
        <time>2021-03-30T12:27:01.059Z</time>
      </trkpt>
      <trkpt lat="48.88397" lon="7.38335">
        <ele>237.52813350427</ele>
        <time>2021-03-30T12:27:04.244Z</time>
      </trkpt>
      <trkpt lat="48.88397" lon="7.38334">
        <ele>239.18530221205</ele>
        <time>2021-03-30T12:27:07.429Z</time>
      </trkpt>
      <trkpt lat="48.8839" lon="7.38306">
        <ele>240.97387114547</ele>
        <time>2021-03-30T12:27:10.621Z</time>
      </trkpt>
      <trkpt lat="48.88367" lon="7.38269">
        <ele>242.93841621254</ele>
        <time>2021-03-30T12:27:13.824Z</time>
      </trkpt>
      <trkpt lat="48.88295" lon="7.38168">
        <ele>245.86069786626</ele>
        <time>2021-03-30T12:27:17.060Z</time>
      </trkpt>
      <trkpt lat="48.88184" lon="7.37998">
        <ele>248.6695660702</ele>
        <time>2021-03-30T12:27:20.348Z</time>
      </trkpt>
      <trkpt lat="48.88122" lon="7.37887">
        <ele>250.66876582398</ele>
        <time>2021-03-30T12:27:23.668Z</time>
      </trkpt>
      <trkpt lat="48.88108" lon="7.37861">
        <ele>252.46598136857</ele>
        <time>2021-03-30T12:27:26.996Z</time>
      </trkpt>
      <trkpt lat="48.88106" lon="7.37858">
        <ele>254.11951853839</ele>
        <time>2021-03-30T12:27:30.325Z</time>
      </trkpt>
      <trkpt lat="48.88088" lon="7.37829">
        <ele>255.48301387407</ele>
        <time>2021-03-30T12:27:33.662Z</time>
      </trkpt>
      <trkpt lat="48.88064" lon="7.37796">
        <ele>256.76838512987</ele>
        <time>2021-03-30T12:27:37.010Z</time>
      </trkpt>
      <trkpt lat="48.88046" lon="7.37778">
        <ele>257.95811252648</ele>
        <time>2021-03-30T12:27:40.365Z</time>
      </trkpt>
      <trkpt lat="48.88032" lon="7.37763">
        <ele>258.9861433477</ele>
        <time>2021-03-30T12:27:43.726Z</time>
      </trkpt>
      <trkpt lat="48.88021" lon="7.37749">
        <ele>259.86008033848</ele>
        <time>2021-03-30T12:27:47.092Z</time>
      </trkpt>
      <trkpt lat="48.88012" lon="7.37739">
        <ele>260.53260298291</ele>
        <time>2021-03-30T12:27:50.462Z</time>
      </trkpt>
      <trkpt lat="48.88005" lon="7.37734">
        <ele>261.02009077258</ele>
        <time>2021-03-30T12:27:53.834Z</time>
      </trkpt>
      <trkpt lat="48.87993" lon="7.37728">
        <ele>261.32038051559</ele>
        <time>2021-03-30T12:27:57.211Z</time>
      </trkpt>
      <trkpt lat="48.87976" lon="7.37717">
        <ele>261.45401188835</ele>
        <time>2021-03-30T12:28:00.594Z</time>
      </trkpt>
      <trkpt lat="48.87958" lon="7.37707">
        <ele>261.38401577741</ele>
        <time>2021-03-30T12:28:03.983Z</time>
      </trkpt>
      <trkpt lat="48.87943" lon="7.37699">
        <ele>261.15430018566</ele>
        <time>2021-03-30T12:28:07.377Z</time>
      </trkpt>
      <trkpt lat="48.87931" lon="7.37691">
        <ele>260.83494688624</ele>
        <time>2021-03-30T12:28:10.776Z</time>
      </trkpt>
      <trkpt lat="48.87919" lon="7.37678">
        <ele>260.43462110843</ele>
        <time>2021-03-30T12:28:14.180Z</time>
      </trkpt>
      <trkpt lat="48.87894" lon="7.37656">
        <ele>259.88966801341</ele>
        <time>2021-03-30T12:28:17.593Z</time>
      </trkpt>
      <trkpt lat="48.87873" lon="7.37636">
        <ele>259.33534008914</ele>
        <time>2021-03-30T12:28:21.015Z</time>
      </trkpt>
      <trkpt lat="48.87849" lon="7.37616">
        <ele>258.79844828894</ele>
        <time>2021-03-30T12:28:24.446Z</time>
      </trkpt>
      <trkpt lat="48.87827" lon="7.376">
        <ele>258.09437482467</ele>
        <time>2021-03-30T12:28:27.885Z</time>
      </trkpt>
      <trkpt lat="48.87803" lon="7.37584">
        <ele>257.26146400581</ele>
        <time>2021-03-30T12:28:31.333Z</time>
      </trkpt>
      <trkpt lat="48.87803" lon="7.37584">
        <ele>255.76853638594</ele>
        <time>2021-03-30T12:28:34.781Z</time>
      </trkpt>
      <trkpt lat="48.87784" lon="7.37577">
        <ele>254.86146973996</ele>
        <time>2021-03-30T12:28:38.235Z</time>
      </trkpt>
      <trkpt lat="48.87778" lon="7.37585">
        <ele>254.05395004072</ele>
        <time>2021-03-30T12:28:41.692Z</time>
      </trkpt>
      <trkpt lat="48.87775" lon="7.3759">
        <ele>253.28019816484</ele>
        <time>2021-03-30T12:28:45.150Z</time>
      </trkpt>
      <trkpt lat="48.8777" lon="7.37582">
        <ele>252.55144738852</ele>
        <time>2021-03-30T12:28:48.611Z</time>
      </trkpt>
      <trkpt lat="48.87769" lon="7.37578">
        <ele>251.85848554179</ele>
        <time>2021-03-30T12:28:52.073Z</time>
      </trkpt>
      <trkpt lat="48.87766" lon="7.37574">
        <ele>251.18695239286</ele>
        <time>2021-03-30T12:28:55.536Z</time>
      </trkpt>
      <trkpt lat="48.87752" lon="7.37545">
        <ele>250.52321709273</ele>
        <time>2021-03-30T12:28:59.007Z</time>
      </trkpt>
      <trkpt lat="48.87751" lon="7.37544">
        <ele>249.94058960777</ele>
        <time>2021-03-30T12:29:02.478Z</time>
      </trkpt>
      <trkpt lat="48.87742" lon="7.37523">
        <ele>249.39855831329</ele>
        <time>2021-03-30T12:29:05.955Z</time>
      </trkpt>
      <trkpt lat="48.87733" lon="7.37497">
        <ele>248.94454118893</ele>
        <time>2021-03-30T12:29:09.438Z</time>
      </trkpt>
      <trkpt lat="48.87722" lon="7.37463">
        <ele>248.53011958856</ele>
        <time>2021-03-30T12:29:12.929Z</time>
      </trkpt>
      <trkpt lat="48.87712" lon="7.37429">
        <ele>248.05083616399</ele>
        <time>2021-03-30T12:29:16.429Z</time>
      </trkpt>
      <trkpt lat="48.87706" lon="7.37405">
        <ele>247.57686802285</ele>
        <time>2021-03-30T12:29:19.934Z</time>
      </trkpt>
      <trkpt lat="48.87701" lon="7.37376">
        <ele>247.0827764107</ele>
        <time>2021-03-30T12:29:23.446Z</time>
      </trkpt>
      <trkpt lat="48.87698" lon="7.37353">
        <ele>246.61484491826</ele>
        <time>2021-03-30T12:29:26.963Z</time>
      </trkpt>
      <trkpt lat="48.87694" lon="7.37327">
        <ele>246.21481255365</ele>
        <time>2021-03-30T12:29:30.486Z</time>
      </trkpt>
      <trkpt lat="48.87694" lon="7.37321">
        <ele>245.89892336997</ele>
        <time>2021-03-30T12:29:34.010Z</time>
      </trkpt>
      <trkpt lat="48.87687" lon="7.3728">
        <ele>245.51783991783</ele>
        <time>2021-03-30T12:29:37.544Z</time>
      </trkpt>
      <trkpt lat="48.87683" lon="7.37252">
        <ele>245.256551827</ele>
        <time>2021-03-30T12:29:41.084Z</time>
      </trkpt>
      <trkpt lat="48.87681" lon="7.37237">
        <ele>245.06088325034</ele>
        <time>2021-03-30T12:29:44.627Z</time>
      </trkpt>
      <trkpt lat="48.8768" lon="7.37217">
        <ele>244.91310205274</ele>
        <time>2021-03-30T12:29:48.175Z</time>
      </trkpt>
      <trkpt lat="48.87679" lon="7.3719">
        <ele>244.80159369782</ele>
        <time>2021-03-30T12:29:51.729Z</time>
      </trkpt>
      <trkpt lat="48.87678" lon="7.37173">
        <ele>244.66742524628</ele>
        <time>2021-03-30T12:29:55.286Z</time>
      </trkpt>
      <trkpt lat="48.87678" lon="7.37142">
        <ele>244.52118906775</ele>
        <time>2021-03-30T12:29:58.850Z</time>
      </trkpt>
      <trkpt lat="48.87677" lon="7.37125">
        <ele>244.32288629167</ele>
        <time>2021-03-30T12:30:02.418Z</time>
      </trkpt>
      <trkpt lat="48.87677" lon="7.37111">
        <ele>244.10574089286</ele>
        <time>2021-03-30T12:30:05.989Z</time>
      </trkpt>
      <trkpt lat="48.87675" lon="7.37097">
        <ele>243.89360905237</ele>
        <time>2021-03-30T12:30:09.563Z</time>
      </trkpt>
      <trkpt lat="48.87673" lon="7.37077">
        <ele>243.66355080283</ele>
        <time>2021-03-30T12:30:13.142Z</time>
      </trkpt>
      <trkpt lat="48.87669" lon="7.37042">
        <ele>243.35986209326</ele>
        <time>2021-03-30T12:30:16.728Z</time>
      </trkpt>
      <trkpt lat="48.87667" lon="7.3703">
        <ele>243.05945003049</ele>
        <time>2021-03-30T12:30:20.317Z</time>
      </trkpt>
      <trkpt lat="48.87667" lon="7.37022">
        <ele>242.75659274739</ele>
        <time>2021-03-30T12:30:23.908Z</time>
      </trkpt>
      <trkpt lat="48.87667" lon="7.37014">
        <ele>242.44522937568</ele>
        <time>2021-03-30T12:30:27.501Z</time>
      </trkpt>
      <trkpt lat="48.87667" lon="7.37005">
        <ele>242.08605015574</ele>
        <time>2021-03-30T12:30:31.096Z</time>
      </trkpt>
      <trkpt lat="48.87667" lon="7.36986">
        <ele>241.68074462522</ele>
        <time>2021-03-30T12:30:34.695Z</time>
      </trkpt>
      <trkpt lat="48.87667" lon="7.36976">
        <ele>241.28828185115</ele>
        <time>2021-03-30T12:30:38.296Z</time>
      </trkpt>
      <trkpt lat="48.87666" lon="7.36966">
        <ele>240.86830610973</ele>
        <time>2021-03-30T12:30:41.899Z</time>
      </trkpt>
      <trkpt lat="48.87665" lon="7.36957">
        <ele>240.41955543409</ele>
        <time>2021-03-30T12:30:45.504Z</time>
      </trkpt>
      <trkpt lat="48.87659" lon="7.36935">
        <ele>239.92266989791</ele>
        <time>2021-03-30T12:30:49.114Z</time>
      </trkpt>
      <trkpt lat="48.87652" lon="7.36909">
        <ele>239.38722411029</ele>
        <time>2021-03-30T12:30:52.731Z</time>
      </trkpt>
      <trkpt lat="48.87643" lon="7.36885">
        <ele>238.82655140278</ele>
        <time>2021-03-30T12:30:56.354Z</time>
      </trkpt>
      <trkpt lat="48.87639" lon="7.36877">
        <ele>238.30777250918</ele>
        <time>2021-03-30T12:30:59.979Z</time>
      </trkpt>
      <trkpt lat="48.8762" lon="7.36847">
        <ele>237.69801356299</ele>
        <time>2021-03-30T12:31:03.613Z</time>
      </trkpt>
      <trkpt lat="48.87604" lon="7.36823">
        <ele>237.12463165008</ele>
        <time>2021-03-30T12:31:07.254Z</time>
      </trkpt>
      <trkpt lat="48.87598" lon="7.36811">
        <ele>236.63300852314</ele>
        <time>2021-03-30T12:31:10.899Z</time>
      </trkpt>
      <trkpt lat="48.87595" lon="7.36799">
        <ele>236.15878796975</ele>
        <time>2021-03-30T12:31:14.547Z</time>
      </trkpt>
      <trkpt lat="48.87592" lon="7.36784">
        <ele>235.66689606881</ele>
        <time>2021-03-30T12:31:18.198Z</time>
      </trkpt>
      <trkpt lat="48.87588" lon="7.36752">
        <ele>235.13927994593</ele>
        <time>2021-03-30T12:31:21.856Z</time>
      </trkpt>
      <trkpt lat="48.87586" lon="7.36731">
        <ele>234.65357565024</ele>
        <time>2021-03-30T12:31:25.519Z</time>
      </trkpt>
      <trkpt lat="48.87585" lon="7.36715">
        <ele>234.20815564744</ele>
        <time>2021-03-30T12:31:29.186Z</time>
      </trkpt>
      <trkpt lat="48.87584" lon="7.36701">
        <ele>233.79815209638</ele>
        <time>2021-03-30T12:31:32.856Z</time>
      </trkpt>
      <trkpt lat="48.87581" lon="7.36667">
        <ele>233.4138150358</ele>
        <time>2021-03-30T12:31:36.533Z</time>
      </trkpt>
      <trkpt lat="48.87581" lon="7.36648">
        <ele>233.15911493567</ele>
        <time>2021-03-30T12:31:40.214Z</time>
      </trkpt>
      <trkpt lat="48.87581" lon="7.36634">
        <ele>232.87729153941</ele>
        <time>2021-03-30T12:31:43.899Z</time>
      </trkpt>
      <trkpt lat="48.87581" lon="7.36618">
        <ele>232.64869750024</ele>
        <time>2021-03-30T12:31:47.587Z</time>
      </trkpt>
      <trkpt lat="48.87581" lon="7.36599">
        <ele>232.43812269405</ele>
        <time>2021-03-30T12:31:51.279Z</time>
      </trkpt>
      <trkpt lat="48.87579" lon="7.36569">
        <ele>232.26155125224</ele>
        <time>2021-03-30T12:31:54.978Z</time>
      </trkpt>
      <trkpt lat="48.87578" lon="7.36546">
        <ele>232.02130926653</ele>
        <time>2021-03-30T12:31:58.682Z</time>
      </trkpt>
      <trkpt lat="48.87576" lon="7.36535">
        <ele>231.75924409401</ele>
        <time>2021-03-30T12:32:02.388Z</time>
      </trkpt>
      <trkpt lat="48.87575" lon="7.36524">
        <ele>231.51833626117</ele>
        <time>2021-03-30T12:32:06.097Z</time>
      </trkpt>
      <trkpt lat="48.87571" lon="7.3651">
        <ele>231.23651434799</ele>
        <time>2021-03-30T12:32:09.809Z</time>
      </trkpt>
      <trkpt lat="48.87568" lon="7.36495">
        <ele>230.95285800739</ele>
        <time>2021-03-30T12:32:13.525Z</time>
      </trkpt>
      <trkpt lat="48.8756" lon="7.36469">
        <ele>230.62154620777</ele>
        <time>2021-03-30T12:32:17.247Z</time>
      </trkpt>
      <trkpt lat="48.87555" lon="7.36449">
        <ele>230.31825256997</ele>
        <time>2021-03-30T12:32:20.974Z</time>
      </trkpt>
      <trkpt lat="48.87552" lon="7.36435">
        <ele>230.05300806358</ele>
        <time>2021-03-30T12:32:24.704Z</time>
      </trkpt>
      <trkpt lat="48.8755" lon="7.36424">
        <ele>229.81493066252</ele>
        <time>2021-03-30T12:32:28.436Z</time>
      </trkpt>
      <trkpt lat="48.87549" lon="7.3641">
        <ele>229.58262534228</ele>
        <time>2021-03-30T12:32:32.171Z</time>
      </trkpt>
      <trkpt lat="48.87548" lon="7.36393">
        <ele>229.35783088148</ele>
        <time>2021-03-30T12:32:35.910Z</time>
      </trkpt>
      <trkpt lat="48.87548" lon="7.3636">
        <ele>229.15078029886</ele>
        <time>2021-03-30T12:32:39.656Z</time>
      </trkpt>
      <trkpt lat="48.8755" lon="7.36313">
        <ele>228.93753928127</ele>
        <time>2021-03-30T12:32:43.413Z</time>
      </trkpt>
      <trkpt lat="48.87552" lon="7.36274">
        <ele>228.6882004202</ele>
        <time>2021-03-30T12:32:47.178Z</time>
      </trkpt>
      <trkpt lat="48.87553" lon="7.36263">
        <ele>228.45877599643</ele>
        <time>2021-03-30T12:32:50.946Z</time>
      </trkpt>
      <trkpt lat="48.87556" lon="7.36245">
        <ele>228.22770447312</ele>
        <time>2021-03-30T12:32:54.718Z</time>
      </trkpt>
      <trkpt lat="48.87557" lon="7.36229">
        <ele>227.96623759626</ele>
        <time>2021-03-30T12:32:58.493Z</time>
      </trkpt>
      <trkpt lat="48.87558" lon="7.36216">
        <ele>227.68717488373</ele>
        <time>2021-03-30T12:33:02.271Z</time>
      </trkpt>
      <trkpt lat="48.8756" lon="7.36179">
        <ele>227.44177990752</ele>
        <time>2021-03-30T12:33:06.058Z</time>
      </trkpt>
      <trkpt lat="48.8756" lon="7.3614">
        <ele>227.31488883263</ele>
        <time>2021-03-30T12:33:09.853Z</time>
      </trkpt>
      <trkpt lat="48.87561" lon="7.36108">
        <ele>227.06306356593</ele>
        <time>2021-03-30T12:33:13.655Z</time>
      </trkpt>
      <trkpt lat="48.87563" lon="7.36081">
        <ele>226.78845663842</ele>
        <time>2021-03-30T12:33:17.463Z</time>
      </trkpt>
      <trkpt lat="48.87566" lon="7.36041">
        <ele>226.49633079637</ele>
        <time>2021-03-30T12:33:21.280Z</time>
      </trkpt>
      <trkpt lat="48.87567" lon="7.36029">
        <ele>226.19609923729</ele>
        <time>2021-03-30T12:33:25.100Z</time>
      </trkpt>
      <trkpt lat="48.87567" lon="7.36021">
        <ele>225.91719350216</ele>
        <time>2021-03-30T12:33:28.921Z</time>
      </trkpt>
      <trkpt lat="48.87566" lon="7.36015">
        <ele>225.667849586</ele>
        <time>2021-03-30T12:33:32.744Z</time>
      </trkpt>
      <trkpt lat="48.87564" lon="7.36004">
        <ele>225.44735779602</ele>
        <time>2021-03-30T12:33:36.569Z</time>
      </trkpt>
      <trkpt lat="48.87562" lon="7.35995">
        <ele>225.28933083212</ele>
        <time>2021-03-30T12:33:40.396Z</time>
      </trkpt>
      <trkpt lat="48.87557" lon="7.35967">
        <ele>225.16807693607</ele>
        <time>2021-03-30T12:33:44.230Z</time>
      </trkpt>
      <trkpt lat="48.87554" lon="7.35952">
        <ele>225.1983229104</ele>
        <time>2021-03-30T12:33:48.067Z</time>
      </trkpt>
      <trkpt lat="48.87554" lon="7.35939">
        <ele>225.34958565981</ele>
        <time>2021-03-30T12:33:51.907Z</time>
      </trkpt>
      <trkpt lat="48.87539" lon="7.35951">
        <ele>225.54808616458</ele>
        <time>2021-03-30T12:33:55.753Z</time>
      </trkpt>
      <trkpt lat="48.8753" lon="7.35963">
        <ele>225.94523000523</ele>
        <time>2021-03-30T12:33:59.603Z</time>
      </trkpt>
      <trkpt lat="48.87513" lon="7.35982">
        <ele>226.43877854602</ele>
        <time>2021-03-30T12:34:03.460Z</time>
      </trkpt>
      <trkpt lat="48.87508" lon="7.3599">
        <ele>227.13991671515</ele>
        <time>2021-03-30T12:34:07.319Z</time>
      </trkpt>
      <trkpt lat="48.87508" lon="7.35877">
        <ele>228.1319781244</ele>
        <time>2021-03-30T12:34:11.203Z</time>
      </trkpt>
      <trkpt lat="48.87506" lon="7.35859">
        <ele>229.21881071585</ele>
        <time>2021-03-30T12:34:15.091Z</time>
      </trkpt>
      <trkpt lat="48.87505" lon="7.35845">
        <ele>230.44082183831</ele>
        <time>2021-03-30T12:34:18.982Z</time>
      </trkpt>
      <trkpt lat="48.87497" lon="7.35803">
        <ele>231.94281132711</ele>
        <time>2021-03-30T12:34:22.883Z</time>
      </trkpt>
      <trkpt lat="48.87493" lon="7.35758">
        <ele>233.57799903101</ele>
        <time>2021-03-30T12:34:26.794Z</time>
      </trkpt>
      <trkpt lat="48.87491" lon="7.35698">
        <ele>235.53769165008</ele>
        <time>2021-03-30T12:34:30.718Z</time>
      </trkpt>
      <trkpt lat="48.87488" lon="7.35649">
        <ele>237.57854487025</ele>
        <time>2021-03-30T12:34:34.653Z</time>
      </trkpt>
      <trkpt lat="48.87484" lon="7.35495">
        <ele>240.10555821119</ele>
        <time>2021-03-30T12:34:38.622Z</time>
      </trkpt>
      <trkpt lat="48.87482" lon="7.35488">
        <ele>242.56349544469</ele>
        <time>2021-03-30T12:34:42.592Z</time>
      </trkpt>
      <trkpt lat="48.87475" lon="7.3548">
        <ele>245.29719385305</ele>
        <time>2021-03-30T12:34:46.565Z</time>
      </trkpt>
      <trkpt lat="48.87467" lon="7.35472">
        <ele>248.20214802084</ele>
        <time>2021-03-30T12:34:50.541Z</time>
      </trkpt>
      <trkpt lat="48.87437" lon="7.3545">
        <ele>251.50504185572</ele>
        <time>2021-03-30T12:34:54.529Z</time>
      </trkpt>
      <trkpt lat="48.87327" lon="7.35392">
        <ele>254.80816097829</ele>
        <time>2021-03-30T12:34:58.555Z</time>
      </trkpt>
      <trkpt lat="48.87312" lon="7.35383">
        <ele>257.88708075508</ele>
        <time>2021-03-30T12:35:02.587Z</time>
      </trkpt>
      <trkpt lat="48.87294" lon="7.35369">
        <ele>261.03902277863</ele>
        <time>2021-03-30T12:35:06.626Z</time>
      </trkpt>
      <trkpt lat="48.87265" lon="7.35339">
        <ele>264.30030233407</ele>
        <time>2021-03-30T12:35:10.676Z</time>
      </trkpt>
      <trkpt lat="48.87259" lon="7.35333">
        <ele>267.51045103582</ele>
        <time>2021-03-30T12:35:14.729Z</time>
      </trkpt>
      <trkpt lat="48.87247" lon="7.35322">
        <ele>270.9143600419</ele>
        <time>2021-03-30T12:35:18.786Z</time>
      </trkpt>
      <trkpt lat="48.87215" lon="7.35287">
        <ele>274.79584261224</ele>
        <time>2021-03-30T12:35:22.856Z</time>
      </trkpt>
      <trkpt lat="48.87205" lon="7.35262">
        <ele>278.12075556975</ele>
        <time>2021-03-30T12:35:26.933Z</time>
      </trkpt>
      <trkpt lat="48.87196" lon="7.35238">
        <ele>281.26753397556</ele>
        <time>2021-03-30T12:35:31.016Z</time>
      </trkpt>
      <trkpt lat="48.87189" lon="7.35222">
        <ele>284.29053768223</ele>
        <time>2021-03-30T12:35:35.103Z</time>
      </trkpt>
      <trkpt lat="48.87178" lon="7.352">
        <ele>287.26719265569</ele>
        <time>2021-03-30T12:35:39.196Z</time>
      </trkpt>
      <trkpt lat="48.87168" lon="7.35182">
        <ele>290.05992553346</ele>
        <time>2021-03-30T12:35:43.294Z</time>
      </trkpt>
      <trkpt lat="48.87155" lon="7.35161">
        <ele>292.73980757145</ele>
        <time>2021-03-30T12:35:47.399Z</time>
      </trkpt>
      <trkpt lat="48.8715" lon="7.3515">
        <ele>295.08865460501</ele>
        <time>2021-03-30T12:35:51.507Z</time>
      </trkpt>
      <trkpt lat="48.87146" lon="7.35139">
        <ele>297.27066162328</ele>
        <time>2021-03-30T12:35:55.617Z</time>
      </trkpt>
      <trkpt lat="48.87141" lon="7.35114">
        <ele>299.35360158943</ele>
        <time>2021-03-30T12:35:59.733Z</time>
      </trkpt>
      <trkpt lat="48.87133" lon="7.35074">
        <ele>301.2699583715</ele>
        <time>2021-03-30T12:36:03.858Z</time>
      </trkpt>
      <trkpt lat="48.87128" lon="7.35048">
        <ele>303.00417610456</ele>
        <time>2021-03-30T12:36:07.989Z</time>
      </trkpt>
      <trkpt lat="48.87123" lon="7.3502">
        <ele>304.61076443275</ele>
        <time>2021-03-30T12:36:12.127Z</time>
      </trkpt>
      <trkpt lat="48.87118" lon="7.34986">
        <ele>306.16793378949</ele>
        <time>2021-03-30T12:36:16.272Z</time>
      </trkpt>
      <trkpt lat="48.87112" lon="7.34961">
        <ele>307.62674465763</ele>
        <time>2021-03-30T12:36:20.423Z</time>
      </trkpt>
      <trkpt lat="48.87101" lon="7.34924">
        <ele>309.11045628299</ele>
        <time>2021-03-30T12:36:24.583Z</time>
      </trkpt>
      <trkpt lat="48.87074" lon="7.34836">
        <ele>310.76537724736</ele>
        <time>2021-03-30T12:36:28.765Z</time>
      </trkpt>
      <trkpt lat="48.87055" lon="7.34795">
        <ele>312.10357359718</ele>
        <time>2021-03-30T12:36:32.958Z</time>
      </trkpt>
      <trkpt lat="48.87054" lon="7.34793">
        <ele>313.2848819272</ele>
        <time>2021-03-30T12:36:37.151Z</time>
      </trkpt>
      <trkpt lat="48.87043" lon="7.3476">
        <ele>314.38643936302</ele>
        <time>2021-03-30T12:36:41.352Z</time>
      </trkpt>
      <trkpt lat="48.87033" lon="7.34729">
        <ele>315.43833871058</ele>
        <time>2021-03-30T12:36:45.561Z</time>
      </trkpt>
      <trkpt lat="48.87024" lon="7.34702">
        <ele>316.53264000822</ele>
        <time>2021-03-30T12:36:49.777Z</time>
      </trkpt>
      <trkpt lat="48.8701" lon="7.34675">
        <ele>317.67114932391</ele>
        <time>2021-03-30T12:36:54.000Z</time>
      </trkpt>
      <trkpt lat="48.86968" lon="7.34621">
        <ele>318.76091537112</ele>
        <time>2021-03-30T12:36:58.242Z</time>
      </trkpt>
      <trkpt lat="48.86963" lon="7.34613">
        <ele>319.88539735065</ele>
        <time>2021-03-30T12:37:02.486Z</time>
      </trkpt>
      <trkpt lat="48.86946" lon="7.34474">
        <ele>321.79867867149</ele>
        <time>2021-03-30T12:37:06.761Z</time>
      </trkpt>
      <trkpt lat="48.8694" lon="7.34427">
        <ele>323.04619131386</ele>
        <time>2021-03-30T12:37:11.047Z</time>
      </trkpt>
      <trkpt lat="48.86919" lon="7.34336">
        <ele>324.28742553473</ele>
        <time>2021-03-30T12:37:15.354Z</time>
      </trkpt>
      <trkpt lat="48.86915" lon="7.34321">
        <ele>325.26138921006</ele>
        <time>2021-03-30T12:37:19.664Z</time>
      </trkpt>
      <trkpt lat="48.86915" lon="7.34321">
        <ele>327.17821691818</ele>
        <time>2021-03-30T12:37:23.974Z</time>
      </trkpt>
      <trkpt lat="48.86886" lon="7.34196">
        <ele>328.45320650543</ele>
        <time>2021-03-30T12:37:28.314Z</time>
      </trkpt>
      <trkpt lat="48.86872" lon="7.34126">
        <ele>329.02853215336</ele>
        <time>2021-03-30T12:37:32.670Z</time>
      </trkpt>
      <trkpt lat="48.8685" lon="7.34024">
        <ele>329.8834941002</ele>
        <time>2021-03-30T12:37:37.049Z</time>
      </trkpt>
      <trkpt lat="48.86841" lon="7.33994">
        <ele>330.82806720615</ele>
        <time>2021-03-30T12:37:41.435Z</time>
      </trkpt>
      <trkpt lat="48.86833" lon="7.33977">
        <ele>331.60229258858</ele>
        <time>2021-03-30T12:37:45.826Z</time>
      </trkpt>
      <trkpt lat="48.86823" lon="7.33954">
        <ele>332.36257227227</ele>
        <time>2021-03-30T12:37:50.223Z</time>
      </trkpt>
      <trkpt lat="48.86816" lon="7.33939">
        <ele>333.07230767235</ele>
        <time>2021-03-30T12:37:54.624Z</time>
      </trkpt>
      <trkpt lat="48.86816" lon="7.33939">
        <ele>333.74311864716</ele>
        <time>2021-03-30T12:37:59.025Z</time>
      </trkpt>
      <trkpt lat="48.86811" lon="7.33925">
        <ele>334.41965402692</ele>
        <time>2021-03-30T12:38:03.430Z</time>
      </trkpt>
      <trkpt lat="48.86807" lon="7.33913">
        <ele>335.0871683347</ele>
        <time>2021-03-30T12:38:07.838Z</time>
      </trkpt>
      <trkpt lat="48.86803" lon="7.33904">
        <ele>335.77620383157</ele>
        <time>2021-03-30T12:38:12.248Z</time>
      </trkpt>
      <trkpt lat="48.86799" lon="7.33895">
        <ele>336.46584170807</ele>
        <time>2021-03-30T12:38:16.660Z</time>
      </trkpt>
      <trkpt lat="48.86795" lon="7.33886">
        <ele>337.10835897248</ele>
        <time>2021-03-30T12:38:21.075Z</time>
      </trkpt>
      <trkpt lat="48.86789" lon="7.33866">
        <ele>337.91075785476</ele>
        <time>2021-03-30T12:38:25.495Z</time>
      </trkpt>
      <trkpt lat="48.86784" lon="7.33852">
        <ele>338.65296340427</ele>
        <time>2021-03-30T12:38:29.918Z</time>
      </trkpt>
      <trkpt lat="48.8678" lon="7.33835">
        <ele>339.36739488561</ele>
        <time>2021-03-30T12:38:34.345Z</time>
      </trkpt>
      <trkpt lat="48.86775" lon="7.33819">
        <ele>340.11283007164</ele>
        <time>2021-03-30T12:38:38.776Z</time>
      </trkpt>
      <trkpt lat="48.86771" lon="7.33809">
        <ele>340.85364579534</ele>
        <time>2021-03-30T12:38:43.210Z</time>
      </trkpt>
      <trkpt lat="48.86767" lon="7.33798">
        <ele>341.61025968529</ele>
        <time>2021-03-30T12:38:47.646Z</time>
      </trkpt>
      <trkpt lat="48.86761" lon="7.33784">
        <ele>342.41226364325</ele>
        <time>2021-03-30T12:38:52.086Z</time>
      </trkpt>
      <trkpt lat="48.86753" lon="7.33768">
        <ele>343.24638218491</ele>
        <time>2021-03-30T12:38:56.530Z</time>
      </trkpt>
      <trkpt lat="48.86735" lon="7.33738">
        <ele>344.11658014886</ele>
        <time>2021-03-30T12:39:00.983Z</time>
      </trkpt>
      <trkpt lat="48.86725" lon="7.33721">
        <ele>344.94492937349</ele>
        <time>2021-03-30T12:39:05.441Z</time>
      </trkpt>
      <trkpt lat="48.86716" lon="7.33706">
        <ele>345.69194608087</ele>
        <time>2021-03-30T12:39:09.904Z</time>
      </trkpt>
      <trkpt lat="48.86705" lon="7.33688">
        <ele>346.41358666676</ele>
        <time>2021-03-30T12:39:14.372Z</time>
      </trkpt>
      <trkpt lat="48.86696" lon="7.33674">
        <ele>347.2281196426</ele>
        <time>2021-03-30T12:39:18.845Z</time>
      </trkpt>
      <trkpt lat="48.86688" lon="7.33664">
        <ele>348.05839807946</ele>
        <time>2021-03-30T12:39:23.321Z</time>
      </trkpt>
      <trkpt lat="48.86682" lon="7.33658">
        <ele>348.89341286784</ele>
        <time>2021-03-30T12:39:27.799Z</time>
      </trkpt>
      <trkpt lat="48.86672" lon="7.33653">
        <ele>349.78686282382</ele>
        <time>2021-03-30T12:39:32.281Z</time>
      </trkpt>
      <trkpt lat="48.86663" lon="7.33648">
        <ele>350.61595552497</ele>
        <time>2021-03-30T12:39:36.766Z</time>
      </trkpt>
      <trkpt lat="48.86657" lon="7.33645">
        <ele>351.33924062034</ele>
        <time>2021-03-30T12:39:41.253Z</time>
      </trkpt>
      <trkpt lat="48.86655" lon="7.33644">
        <ele>352.00160903454</ele>
        <time>2021-03-30T12:39:45.741Z</time>
      </trkpt>
      <trkpt lat="48.86644" lon="7.33641">
        <ele>352.63898844402</ele>
        <time>2021-03-30T12:39:50.233Z</time>
      </trkpt>
      <trkpt lat="48.86637" lon="7.33639">
        <ele>353.21556622051</ele>
        <time>2021-03-30T12:39:54.727Z</time>
      </trkpt>
      <trkpt lat="48.86626" lon="7.33637">
        <ele>353.74759614642</ele>
        <time>2021-03-30T12:39:59.225Z</time>
      </trkpt>
      <trkpt lat="48.86616" lon="7.33636">
        <ele>354.22412453476</ele>
        <time>2021-03-30T12:40:03.726Z</time>
      </trkpt>
      <trkpt lat="48.86608" lon="7.33633">
        <ele>354.70533210925</ele>
        <time>2021-03-30T12:40:08.230Z</time>
      </trkpt>
      <trkpt lat="48.866" lon="7.33628">
        <ele>355.18454456213</ele>
        <time>2021-03-30T12:40:12.737Z</time>
      </trkpt>
      <trkpt lat="48.86583" lon="7.33615">
        <ele>355.58961194179</ele>
        <time>2021-03-30T12:40:17.250Z</time>
      </trkpt>
      <trkpt lat="48.86568" lon="7.33595">
        <ele>356.0695143466</ele>
        <time>2021-03-30T12:40:21.770Z</time>
      </trkpt>
      <trkpt lat="48.86522" lon="7.33541">
        <ele>356.92280967357</ele>
        <time>2021-03-30T12:40:26.309Z</time>
      </trkpt>
      <trkpt lat="48.86502" lon="7.33518">
        <ele>357.60238815732</ele>
        <time>2021-03-30T12:40:30.857Z</time>
      </trkpt>
      <trkpt lat="48.86466" lon="7.33495">
        <ele>358.26505095109</ele>
        <time>2021-03-30T12:40:35.418Z</time>
      </trkpt>
      <trkpt lat="48.8642" lon="7.33465">
        <ele>358.7327733233</ele>
        <time>2021-03-30T12:40:39.995Z</time>
      </trkpt>
      <trkpt lat="48.86397" lon="7.33456">
        <ele>358.78077260603</ele>
        <time>2021-03-30T12:40:44.580Z</time>
      </trkpt>
      <trkpt lat="48.86387" lon="7.33484">
        <ele>358.73229289607</ele>
        <time>2021-03-30T12:40:49.172Z</time>
      </trkpt>
      <trkpt lat="48.86367" lon="7.33488">
        <ele>358.75335583861</ele>
        <time>2021-03-30T12:40:53.771Z</time>
      </trkpt>
      <trkpt lat="48.86363" lon="7.33489">
        <ele>358.82813290857</ele>
        <time>2021-03-30T12:40:58.371Z</time>
      </trkpt>
      <trkpt lat="48.8635" lon="7.33493">
        <ele>358.85236965928</ele>
        <time>2021-03-30T12:41:02.976Z</time>
      </trkpt>
      <trkpt lat="48.86329" lon="7.33499">
        <ele>358.93367009372</ele>
        <time>2021-03-30T12:41:07.588Z</time>
      </trkpt>
      <trkpt lat="48.8631" lon="7.33506">
        <ele>359.07657025266</ele>
        <time>2021-03-30T12:41:12.206Z</time>
      </trkpt>
      <trkpt lat="48.8629" lon="7.33511">
        <ele>359.25546768402</ele>
        <time>2021-03-30T12:41:16.831Z</time>
      </trkpt>
      <trkpt lat="48.86266" lon="7.33518">
        <ele>359.4885062306</ele>
        <time>2021-03-30T12:41:21.464Z</time>
      </trkpt>
      <trkpt lat="48.86245" lon="7.33523">
        <ele>359.76708009936</ele>
        <time>2021-03-30T12:41:26.104Z</time>
      </trkpt>
      <trkpt lat="48.86227" lon="7.33524">
        <ele>360.11021177947</ele>
        <time>2021-03-30T12:41:30.750Z</time>
      </trkpt>
      <trkpt lat="48.86214" lon="7.33524">
        <ele>360.51777088169</ele>
        <time>2021-03-30T12:41:35.401Z</time>
      </trkpt>
      <trkpt lat="48.86204" lon="7.33522">
        <ele>361.09138237162</ele>
        <time>2021-03-30T12:41:40.055Z</time>
      </trkpt>
      <trkpt lat="48.86194" lon="7.33517">
        <ele>361.84744228855</ele>
        <time>2021-03-30T12:41:44.713Z</time>
      </trkpt>
      <trkpt lat="48.8618" lon="7.33511">
        <ele>362.74289665236</ele>
        <time>2021-03-30T12:41:49.375Z</time>
      </trkpt>
      <trkpt lat="48.86153" lon="7.33494">
        <ele>364.17148273675</ele>
        <time>2021-03-30T12:41:54.047Z</time>
      </trkpt>
      <trkpt lat="48.86141" lon="7.33483">
        <ele>365.59002914641</ele>
        <time>2021-03-30T12:41:58.724Z</time>
      </trkpt>
      <trkpt lat="48.86135" lon="7.33486">
        <ele>366.98579297981</ele>
        <time>2021-03-30T12:42:03.403Z</time>
      </trkpt>
      <trkpt lat="48.86131" lon="7.33491">
        <ele>368.47899352011</ele>
        <time>2021-03-30T12:42:08.084Z</time>
      </trkpt>
      <trkpt lat="48.86129" lon="7.33492">
        <ele>370.06762478793</ele>
        <time>2021-03-30T12:42:12.765Z</time>
      </trkpt>
      <trkpt lat="48.861" lon="7.33506">
        <ele>371.72145611536</ele>
        <time>2021-03-30T12:42:17.457Z</time>
      </trkpt>
      <trkpt lat="48.86079" lon="7.33514">
        <ele>373.60690607734</ele>
        <time>2021-03-30T12:42:22.156Z</time>
      </trkpt>
      <trkpt lat="48.86058" lon="7.33516">
        <ele>375.66808340379</ele>
        <time>2021-03-30T12:42:26.862Z</time>
      </trkpt>
      <trkpt lat="48.86045" lon="7.3351">
        <ele>377.64705052181</ele>
        <time>2021-03-30T12:42:31.572Z</time>
      </trkpt>
      <trkpt lat="48.86047" lon="7.33445">
        <ele>379.78180994588</ele>
        <time>2021-03-30T12:42:36.296Z</time>
      </trkpt>
      <trkpt lat="48.86047" lon="7.33376">
        <ele>381.92372161043</ele>
        <time>2021-03-30T12:42:41.036Z</time>
      </trkpt>
      <trkpt lat="48.86045" lon="7.33356">
        <ele>383.70428890909</ele>
        <time>2021-03-30T12:42:45.780Z</time>
      </trkpt>
      <trkpt lat="48.86042" lon="7.33337">
        <ele>385.36340473955</ele>
        <time>2021-03-30T12:42:50.528Z</time>
      </trkpt>
      <trkpt lat="48.86037" lon="7.33292">
        <ele>386.88160590219</ele>
        <time>2021-03-30T12:42:55.286Z</time>
      </trkpt>
      <trkpt lat="48.86029" lon="7.33255">
        <ele>388.26296829501</ele>
        <time>2021-03-30T12:43:00.053Z</time>
      </trkpt>
      <trkpt lat="48.86017" lon="7.33216">
        <ele>389.45412834872</ele>
        <time>2021-03-30T12:43:04.830Z</time>
      </trkpt>
      <trkpt lat="48.86007" lon="7.33185">
        <ele>390.42297838012</ele>
        <time>2021-03-30T12:43:09.614Z</time>
      </trkpt>
      <trkpt lat="48.8599" lon="7.33121">
        <ele>391.35433839305</ele>
        <time>2021-03-30T12:43:14.413Z</time>
      </trkpt>
      <trkpt lat="48.85979" lon="7.33052">
        <ele>392.03737558524</ele>
        <time>2021-03-30T12:43:19.228Z</time>
      </trkpt>
      <trkpt lat="48.85975" lon="7.33004">
        <ele>392.18005800675</ele>
        <time>2021-03-30T12:43:24.054Z</time>
      </trkpt>
      <trkpt lat="48.85969" lon="7.32962">
        <ele>391.98273732317</ele>
        <time>2021-03-30T12:43:28.889Z</time>
      </trkpt>
      <trkpt lat="48.85959" lon="7.3291">
        <ele>391.57139649392</ele>
        <time>2021-03-30T12:43:33.736Z</time>
      </trkpt>
      <trkpt lat="48.85953" lon="7.32872">
        <ele>390.93454973344</ele>
        <time>2021-03-30T12:43:38.592Z</time>
      </trkpt>
      <trkpt lat="48.85939" lon="7.32814">
        <ele>389.87764359552</ele>
        <time>2021-03-30T12:43:43.461Z</time>
      </trkpt>
      <trkpt lat="48.85937" lon="7.32796">
        <ele>388.64945314162</ele>
        <time>2021-03-30T12:43:48.334Z</time>
      </trkpt>
      <trkpt lat="48.85938" lon="7.32777">
        <ele>387.17953241095</ele>
        <time>2021-03-30T12:43:53.211Z</time>
      </trkpt>
      <trkpt lat="48.8594" lon="7.32749">
        <ele>385.35614583324</ele>
        <time>2021-03-30T12:43:58.095Z</time>
      </trkpt>
      <trkpt lat="48.85954" lon="7.32684">
        <ele>383.34177186521</ele>
        <time>2021-03-30T12:44:02.994Z</time>
      </trkpt>
      <trkpt lat="48.85958" lon="7.32632">
        <ele>381.04171187702</ele>
        <time>2021-03-30T12:44:07.904Z</time>
      </trkpt>
      <trkpt lat="48.85957" lon="7.32545">
        <ele>378.4161957577</ele>
        <time>2021-03-30T12:44:12.833Z</time>
      </trkpt>
      <trkpt lat="48.85953" lon="7.32481">
        <ele>375.50840523658</ele>
        <time>2021-03-30T12:44:17.776Z</time>
      </trkpt>
      <trkpt lat="48.85949" lon="7.32417">
        <ele>372.60301329546</ele>
        <time>2021-03-30T12:44:22.734Z</time>
      </trkpt>
      <trkpt lat="48.85945" lon="7.32353">
        <ele>369.46802563304</ele>
        <time>2021-03-30T12:44:27.706Z</time>
      </trkpt>
      <trkpt lat="48.85939" lon="7.32303">
        <ele>366.13566628138</ele>
        <time>2021-03-30T12:44:32.689Z</time>
      </trkpt>
      <trkpt lat="48.85933" lon="7.32254">
        <ele>362.81879022295</ele>
        <time>2021-03-30T12:44:37.683Z</time>
      </trkpt>
      <trkpt lat="48.85929" lon="7.3222">
        <ele>359.69991715788</ele>
        <time>2021-03-30T12:44:42.685Z</time>
      </trkpt>
      <trkpt lat="48.85927" lon="7.32185">
        <ele>356.70702738596</ele>
        <time>2021-03-30T12:44:47.694Z</time>
      </trkpt>
      <trkpt lat="48.8593" lon="7.32164">
        <ele>353.90645384542</ele>
        <time>2021-03-30T12:44:52.708Z</time>
      </trkpt>
      <trkpt lat="48.85932" lon="7.32142">
        <ele>351.22381736257</ele>
        <time>2021-03-30T12:44:57.727Z</time>
      </trkpt>
      <trkpt lat="48.85934" lon="7.32121">
        <ele>348.73797509632</ele>
        <time>2021-03-30T12:45:02.751Z</time>
      </trkpt>
      <trkpt lat="48.85934" lon="7.32098">
        <ele>346.51715248685</ele>
        <time>2021-03-30T12:45:07.780Z</time>
      </trkpt>
      <trkpt lat="48.85936" lon="7.32082">
        <ele>344.5661813276</ele>
        <time>2021-03-30T12:45:12.812Z</time>
      </trkpt>
      <trkpt lat="48.85942" lon="7.32067">
        <ele>342.85145032909</ele>
        <time>2021-03-30T12:45:17.848Z</time>
      </trkpt>
      <trkpt lat="48.85931" lon="7.32076">
        <ele>341.47881903535</ele>
        <time>2021-03-30T12:45:22.888Z</time>
      </trkpt>
      <trkpt lat="48.8592" lon="7.32079">
        <ele>340.26942984934</ele>
        <time>2021-03-30T12:45:27.932Z</time>
      </trkpt>
      <trkpt lat="48.85899" lon="7.32081">
        <ele>339.26552820502</ele>
        <time>2021-03-30T12:45:32.983Z</time>
      </trkpt>
      <trkpt lat="48.85885" lon="7.3208">
        <ele>338.41171049248</ele>
        <time>2021-03-30T12:45:38.039Z</time>
      </trkpt>
      <trkpt lat="48.85868" lon="7.32077">
        <ele>337.79806146511</ele>
        <time>2021-03-30T12:45:43.100Z</time>
      </trkpt>
      <trkpt lat="48.85841" lon="7.32071">
        <ele>337.57073988657</ele>
        <time>2021-03-30T12:45:48.170Z</time>
      </trkpt>
      <trkpt lat="48.85795" lon="7.32059">
        <ele>337.40772952357</ele>
        <time>2021-03-30T12:45:53.256Z</time>
      </trkpt>
      <trkpt lat="48.85784" lon="7.32057">
        <ele>337.38032646256</ele>
        <time>2021-03-30T12:45:58.346Z</time>
      </trkpt>
      <trkpt lat="48.85775" lon="7.32046">
        <ele>337.68655039409</ele>
        <time>2021-03-30T12:46:03.440Z</time>
      </trkpt>
      <trkpt lat="48.85758" lon="7.32019">
        <ele>338.32469042341</ele>
        <time>2021-03-30T12:46:08.542Z</time>
      </trkpt>
      <trkpt lat="48.85742" lon="7.31994">
        <ele>339.1869957307</ele>
        <time>2021-03-30T12:46:13.651Z</time>
      </trkpt>
      <trkpt lat="48.85724" lon="7.31979">
        <ele>340.33250150334</ele>
        <time>2021-03-30T12:46:18.767Z</time>
      </trkpt>
      <trkpt lat="48.85711" lon="7.31975">
        <ele>341.45397798131</ele>
        <time>2021-03-30T12:46:23.888Z</time>
      </trkpt>
      <trkpt lat="48.85689" lon="7.31978">
        <ele>342.61700762312</ele>
        <time>2021-03-30T12:46:29.016Z</time>
      </trkpt>
      <trkpt lat="48.8568" lon="7.31971">
        <ele>343.95657312531</ele>
        <time>2021-03-30T12:46:34.147Z</time>
      </trkpt>
      <trkpt lat="48.85662" lon="7.31972">
        <ele>345.27036488533</ele>
        <time>2021-03-30T12:46:39.284Z</time>
      </trkpt>
      <trkpt lat="48.85649" lon="7.31971">
        <ele>346.67349473045</ele>
        <time>2021-03-30T12:46:44.426Z</time>
      </trkpt>
      <trkpt lat="48.85644" lon="7.3196">
        <ele>348.22487569085</ele>
        <time>2021-03-30T12:46:49.571Z</time>
      </trkpt>
      <trkpt lat="48.85641" lon="7.3194">
        <ele>349.72018160592</ele>
        <time>2021-03-30T12:46:54.720Z</time>
      </trkpt>
      <trkpt lat="48.85644" lon="7.31927">
        <ele>350.85901877029</ele>
        <time>2021-03-30T12:46:59.872Z</time>
      </trkpt>
      <trkpt lat="48.85649" lon="7.319">
        <ele>351.87890367746</ele>
        <time>2021-03-30T12:47:05.030Z</time>
      </trkpt>
      <trkpt lat="48.8565" lon="7.319">
        <ele>352.72386238779</ele>
        <time>2021-03-30T12:47:10.189Z</time>
      </trkpt>
    </trkseg>
  </trk>
</gpx>